<?xml version="1.0" encoding="UTF-8" standalone="no" ?>
<gpx xmlns="http://www.topografix.com/GPX/1/1" xmlns:xsi="http://www.w3.org/2001/XMLSchema-instance" xsi:schemaLocation="http://www.topografix.com/GPX/1/1 http://www.topografix.com/GPX/1/1/gpx.xsd" version="1.1" creator="VisuGPX - https://www.visugpx.com">
  <metadata>
    <name>Etendard 2</name>
  </metadata>
  <trk>
    <name><![CDATA[ACTIVE LOG 005]]></name>
    <trkseg>
      <trkpt lat="45.22761" lon="6.20259">
        <ele>1901.1445313</ele>
        <time>2010-05-22T04:35:44Z</time>
      </trkpt>
      <trkpt lat="45.22751" lon="6.20253">
        <ele>1901.6252441</ele>
        <time>2010-05-22T04:35:51Z</time>
      </trkpt>
      <trkpt lat="45.22743" lon="6.20244">
        <ele>1902.5864258</ele>
        <time>2010-05-22T04:35:57Z</time>
      </trkpt>
      <trkpt lat="45.22736" lon="6.20234">
        <ele>1903.5478516</ele>
        <time>2010-05-22T04:36:04Z</time>
      </trkpt>
      <trkpt lat="45.2273" lon="6.20224">
        <ele>1905.470459</ele>
        <time>2010-05-22T04:36:11Z</time>
      </trkpt>
      <trkpt lat="45.22679" lon="6.20136">
        <ele>1914.1220703</ele>
        <time>2010-05-22T04:37:16Z</time>
      </trkpt>
      <trkpt lat="45.22677" lon="6.20123">
        <ele>1913.1608887</ele>
        <time>2010-05-22T04:37:23Z</time>
      </trkpt>
      <trkpt lat="45.22679" lon="6.20107">
        <ele>1915.564209</ele>
        <time>2010-05-22T04:37:33Z</time>
      </trkpt>
      <trkpt lat="45.22687" lon="6.20072">
        <ele>1927.5805664</ele>
        <time>2010-05-22T04:39:58Z</time>
      </trkpt>
      <trkpt lat="45.22687" lon="6.20075">
        <ele>1934.7907715</ele>
        <time>2010-05-22T04:41:35Z</time>
      </trkpt>
      <trkpt lat="45.2269" lon="6.20049">
        <ele>1943.9230957</ele>
        <time>2010-05-22T04:43:08Z</time>
      </trkpt>
      <trkpt lat="45.2269" lon="6.20036">
        <ele>1944.8842773</ele>
        <time>2010-05-22T04:43:17Z</time>
      </trkpt>
      <trkpt lat="45.22692" lon="6.20023">
        <ele>1946.8068848</ele>
        <time>2010-05-22T04:43:26Z</time>
      </trkpt>
      <trkpt lat="45.22699" lon="6.1998">
        <ele>1953.536377</ele>
        <time>2010-05-22T04:43:57Z</time>
      </trkpt>
      <trkpt lat="45.22699" lon="6.19967">
        <ele>1954.0170898</ele>
        <time>2010-05-22T04:44:07Z</time>
      </trkpt>
      <trkpt lat="45.22697" lon="6.19953">
        <ele>1955.9394531</ele>
        <time>2010-05-22T04:44:17Z</time>
      </trkpt>
      <trkpt lat="45.227" lon="6.19939">
        <ele>1956.420166</ele>
        <time>2010-05-22T04:44:25Z</time>
      </trkpt>
      <trkpt lat="45.22708" lon="6.19912">
        <ele>1956.9008789</ele>
        <time>2010-05-22T04:44:39Z</time>
      </trkpt>
      <trkpt lat="45.22717" lon="6.19887">
        <ele>1957.3815918</ele>
        <time>2010-05-22T04:44:54Z</time>
      </trkpt>
      <trkpt lat="45.22723" lon="6.19874">
        <ele>1957.8623047</ele>
        <time>2010-05-22T04:45:02Z</time>
      </trkpt>
      <trkpt lat="45.22728" lon="6.19862">
        <ele>1957.8623047</ele>
        <time>2010-05-22T04:45:09Z</time>
      </trkpt>
      <trkpt lat="45.22738" lon="6.19837">
        <ele>1959.784668</ele>
        <time>2010-05-22T04:45:25Z</time>
      </trkpt>
      <trkpt lat="45.22744" lon="6.19824">
        <ele>1960.2653809</ele>
        <time>2010-05-22T04:45:33Z</time>
      </trkpt>
      <trkpt lat="45.22755" lon="6.19798">
        <ele>1960.7460938</ele>
        <time>2010-05-22T04:45:49Z</time>
      </trkpt>
      <trkpt lat="45.22759" lon="6.19785">
        <ele>1960.2653809</ele>
        <time>2010-05-22T04:45:56Z</time>
      </trkpt>
      <trkpt lat="45.22778" lon="6.19752">
        <ele>1962.1879883</ele>
        <time>2010-05-22T04:46:17Z</time>
      </trkpt>
      <trkpt lat="45.22783" lon="6.19741">
        <ele>1962.6687012</ele>
        <time>2010-05-22T04:46:25Z</time>
      </trkpt>
      <trkpt lat="45.22788" lon="6.19728">
        <ele>1963.1494141</ele>
        <time>2010-05-22T04:46:33Z</time>
      </trkpt>
      <trkpt lat="45.22791" lon="6.19715">
        <ele>1964.5915527</ele>
        <time>2010-05-22T04:46:41Z</time>
      </trkpt>
      <trkpt lat="45.22803" lon="6.19678">
        <ele>1966.994873</ele>
        <time>2010-05-22T04:47:07Z</time>
      </trkpt>
      <trkpt lat="45.22806" lon="6.19664">
        <ele>1967.9560547</ele>
        <time>2010-05-22T04:47:16Z</time>
      </trkpt>
      <trkpt lat="45.22805" lon="6.19651">
        <ele>1967.9560547</ele>
        <time>2010-05-22T04:47:25Z</time>
      </trkpt>
      <trkpt lat="45.22807" lon="6.19611">
        <ele>1969.3981934</ele>
        <time>2010-05-22T04:47:49Z</time>
      </trkpt>
      <trkpt lat="45.22807" lon="6.196">
        <ele>1969.3981934</ele>
        <time>2010-05-22T04:47:56Z</time>
      </trkpt>
      <trkpt lat="45.22806" lon="6.19587">
        <ele>1968.4367676</ele>
        <time>2010-05-22T04:48:04Z</time>
      </trkpt>
      <trkpt lat="45.22801" lon="6.19561">
        <ele>1969.3981934</ele>
        <time>2010-05-22T04:48:19Z</time>
      </trkpt>
      <trkpt lat="45.22797" lon="6.19547">
        <ele>1969.3981934</ele>
        <time>2010-05-22T04:48:28Z</time>
      </trkpt>
      <trkpt lat="45.22795" lon="6.19532">
        <ele>1968.9174805</ele>
        <time>2010-05-22T04:48:36Z</time>
      </trkpt>
      <trkpt lat="45.22791" lon="6.19518">
        <ele>1968.4367676</ele>
        <time>2010-05-22T04:48:43Z</time>
      </trkpt>
      <trkpt lat="45.22781" lon="6.19496">
        <ele>1969.8786621</ele>
        <time>2010-05-22T04:48:57Z</time>
      </trkpt>
      <trkpt lat="45.22774" lon="6.19485">
        <ele>1969.8786621</ele>
        <time>2010-05-22T04:49:04Z</time>
      </trkpt>
      <trkpt lat="45.22766" lon="6.19475">
        <ele>1970.8400879</ele>
        <time>2010-05-22T04:49:12Z</time>
      </trkpt>
      <trkpt lat="45.22758" lon="6.19466">
        <ele>1971.3205566</ele>
        <time>2010-05-22T04:49:20Z</time>
      </trkpt>
      <trkpt lat="45.22743" lon="6.1945">
        <ele>1970.8400879</ele>
        <time>2010-05-22T04:49:34Z</time>
      </trkpt>
      <trkpt lat="45.22735" lon="6.19442">
        <ele>1971.8012695</ele>
        <time>2010-05-22T04:49:41Z</time>
      </trkpt>
      <trkpt lat="45.22728" lon="6.19432">
        <ele>1970.8400879</ele>
        <time>2010-05-22T04:49:48Z</time>
      </trkpt>
      <trkpt lat="45.2272" lon="6.19424">
        <ele>1971.8012695</ele>
        <time>2010-05-22T04:49:54Z</time>
      </trkpt>
      <trkpt lat="45.22713" lon="6.19415">
        <ele>1970.8400879</ele>
        <time>2010-05-22T04:50:01Z</time>
      </trkpt>
      <trkpt lat="45.22704" lon="6.19409">
        <ele>1971.8012695</ele>
        <time>2010-05-22T04:50:09Z</time>
      </trkpt>
      <trkpt lat="45.22695" lon="6.19403">
        <ele>1973.2434082</ele>
        <time>2010-05-22T04:50:19Z</time>
      </trkpt>
      <trkpt lat="45.22678" lon="6.1939">
        <ele>1977.5690918</ele>
        <time>2010-05-22T04:50:39Z</time>
      </trkpt>
      <trkpt lat="45.22671" lon="6.19384">
        <ele>1979.4916992</ele>
        <time>2010-05-22T04:50:49Z</time>
      </trkpt>
      <trkpt lat="45.22664" lon="6.19374">
        <ele>1982.3759766</ele>
        <time>2010-05-22T04:51:00Z</time>
      </trkpt>
      <trkpt lat="45.22654" lon="6.19367">
        <ele>1985.7404785</ele>
        <time>2010-05-22T04:51:33Z</time>
      </trkpt>
      <trkpt lat="45.22641" lon="6.19343">
        <ele>1991.9890137</ele>
        <time>2010-05-22T04:51:57Z</time>
      </trkpt>
      <trkpt lat="45.22632" lon="6.19322">
        <ele>1996.3151855</ele>
        <time>2010-05-22T04:52:19Z</time>
      </trkpt>
      <trkpt lat="45.22624" lon="6.1931">
        <ele>2001.121582</ele>
        <time>2010-05-22T04:52:33Z</time>
      </trkpt>
      <trkpt lat="45.22618" lon="6.19296">
        <ele>2003.0441895</ele>
        <time>2010-05-22T04:52:46Z</time>
      </trkpt>
      <trkpt lat="45.22613" lon="6.1925">
        <ele>2012.1767578</ele>
        <time>2010-05-22T04:53:35Z</time>
      </trkpt>
      <trkpt lat="45.22585" lon="6.19252">
        <ele>2028.5192871</ele>
        <time>2010-05-22T04:54:37Z</time>
      </trkpt>
      <trkpt lat="45.2258" lon="6.1923">
        <ele>2031.4030762</ele>
        <time>2010-05-22T04:54:55Z</time>
      </trkpt>
      <trkpt lat="45.22568" lon="6.19222">
        <ele>2036.6901855</ele>
        <time>2010-05-22T04:55:16Z</time>
      </trkpt>
      <trkpt lat="45.22558" lon="6.19226">
        <ele>2040.5354004</ele>
        <time>2010-05-22T04:55:28Z</time>
      </trkpt>
      <trkpt lat="45.22476" lon="6.19156">
        <ele>2092.4470215</ele>
        <time>2010-05-22T04:59:31Z</time>
      </trkpt>
      <trkpt lat="45.22475" lon="6.19139">
        <ele>2096.2922363</ele>
        <time>2010-05-22T04:59:55Z</time>
      </trkpt>
      <trkpt lat="45.22486" lon="6.19127">
        <ele>2099.1760254</ele>
        <time>2010-05-22T05:00:13Z</time>
      </trkpt>
      <trkpt lat="45.22479" lon="6.19109">
        <ele>2102.0598145</ele>
        <time>2010-05-22T05:00:30Z</time>
      </trkpt>
      <trkpt lat="45.22475" lon="6.19097">
        <ele>2103.982666</ele>
        <time>2010-05-22T05:00:42Z</time>
      </trkpt>
      <trkpt lat="45.22472" lon="6.19084">
        <ele>2108.7893066</ele>
        <time>2010-05-22T05:02:05Z</time>
      </trkpt>
      <trkpt lat="45.22466" lon="6.19074">
        <ele>2110.7119141</ele>
        <time>2010-05-22T05:02:16Z</time>
      </trkpt>
      <trkpt lat="45.22462" lon="6.19061">
        <ele>2113.5957031</ele>
        <time>2010-05-22T05:02:28Z</time>
      </trkpt>
      <trkpt lat="45.22453" lon="6.19056">
        <ele>2117.440918</ele>
        <time>2010-05-22T05:02:41Z</time>
      </trkpt>
      <trkpt lat="45.22444" lon="6.19057">
        <ele>2120.8056641</ele>
        <time>2010-05-22T05:02:54Z</time>
      </trkpt>
      <trkpt lat="45.22435" lon="6.19059">
        <ele>2123.2089844</ele>
        <time>2010-05-22T05:03:07Z</time>
      </trkpt>
      <trkpt lat="45.22427" lon="6.19061">
        <ele>2126.5737305</ele>
        <time>2010-05-22T05:03:22Z</time>
      </trkpt>
      <trkpt lat="45.22421" lon="6.19054">
        <ele>2131.380127</ele>
        <time>2010-05-22T05:03:37Z</time>
      </trkpt>
      <trkpt lat="45.22417" lon="6.1904">
        <ele>2135.2253418</ele>
        <time>2010-05-22T05:03:55Z</time>
      </trkpt>
      <trkpt lat="45.22411" lon="6.19037">
        <ele>2138.109375</ele>
        <time>2010-05-22T05:04:10Z</time>
      </trkpt>
      <trkpt lat="45.22401" lon="6.1904">
        <ele>2141.954834</ele>
        <time>2010-05-22T05:04:25Z</time>
      </trkpt>
      <trkpt lat="45.2239" lon="6.19019">
        <ele>2151.5678711</ele>
        <time>2010-05-22T05:05:10Z</time>
      </trkpt>
      <trkpt lat="45.22392" lon="6.19005">
        <ele>2154.932373</ele>
        <time>2010-05-22T05:05:25Z</time>
      </trkpt>
      <trkpt lat="45.22377" lon="6.18996">
        <ele>2162.142334</ele>
        <time>2010-05-22T05:05:54Z</time>
      </trkpt>
      <trkpt lat="45.22368" lon="6.18993">
        <ele>2165.0263672</ele>
        <time>2010-05-22T05:06:07Z</time>
      </trkpt>
      <trkpt lat="45.2235" lon="6.18988">
        <ele>2170.3134766</ele>
        <time>2010-05-22T05:06:34Z</time>
      </trkpt>
      <trkpt lat="45.22333" lon="6.18982">
        <ele>2179.4460449</ele>
        <time>2010-05-22T05:07:03Z</time>
      </trkpt>
      <trkpt lat="45.22324" lon="6.18977">
        <ele>2182.8105469</ele>
        <time>2010-05-22T05:07:19Z</time>
      </trkpt>
      <trkpt lat="45.2229" lon="6.18957">
        <ele>2193.8659668</ele>
        <time>2010-05-22T05:08:20Z</time>
      </trkpt>
      <trkpt lat="45.22281" lon="6.18953">
        <ele>2196.2692871</ele>
        <time>2010-05-22T05:08:33Z</time>
      </trkpt>
      <trkpt lat="45.22271" lon="6.18948">
        <ele>2200.114502</ele>
        <time>2010-05-22T05:08:47Z</time>
      </trkpt>
      <trkpt lat="45.22262" lon="6.18943">
        <ele>2202.5175781</ele>
        <time>2010-05-22T05:09:13Z</time>
      </trkpt>
      <trkpt lat="45.22237" lon="6.18953">
        <ele>2211.1696777</ele>
        <time>2010-05-22T05:09:54Z</time>
      </trkpt>
      <trkpt lat="45.22208" lon="6.18961">
        <ele>2216.9375</ele>
        <time>2010-05-22T05:10:32Z</time>
      </trkpt>
      <trkpt lat="45.22198" lon="6.18961">
        <ele>2219.3408203</ele>
        <time>2010-05-22T05:10:44Z</time>
      </trkpt>
      <trkpt lat="45.22168" lon="6.18956">
        <ele>2222.7055664</ele>
        <time>2010-05-22T05:11:19Z</time>
      </trkpt>
      <trkpt lat="45.2214" lon="6.18947">
        <ele>2224.6281738</ele>
        <time>2010-05-22T05:11:46Z</time>
      </trkpt>
      <trkpt lat="45.22112" lon="6.18935">
        <ele>2227.5119629</ele>
        <time>2010-05-22T05:12:16Z</time>
      </trkpt>
      <trkpt lat="45.22083" lon="6.18925">
        <ele>2229.9152832</ele>
        <time>2010-05-22T05:12:45Z</time>
      </trkpt>
      <trkpt lat="45.22073" lon="6.1892">
        <ele>2229.9152832</ele>
        <time>2010-05-22T05:12:54Z</time>
      </trkpt>
      <trkpt lat="45.22028" lon="6.18893">
        <ele>2233.2797852</ele>
        <time>2010-05-22T05:13:38Z</time>
      </trkpt>
      <trkpt lat="45.22019" lon="6.18888">
        <ele>2233.760498</ele>
        <time>2010-05-22T05:13:47Z</time>
      </trkpt>
      <trkpt lat="45.22001" lon="6.18875">
        <ele>2233.2797852</ele>
        <time>2010-05-22T05:14:04Z</time>
      </trkpt>
      <trkpt lat="45.21976" lon="6.18857">
        <ele>2237.605957</ele>
        <time>2010-05-22T05:14:35Z</time>
      </trkpt>
      <trkpt lat="45.21957" lon="6.18825">
        <ele>2243.3737793</ele>
        <time>2010-05-22T05:15:12Z</time>
      </trkpt>
      <trkpt lat="45.2195" lon="6.18815">
        <ele>2246.2578125</ele>
        <time>2010-05-22T05:15:24Z</time>
      </trkpt>
      <trkpt lat="45.21935" lon="6.18796">
        <ele>2249.6223145</ele>
        <time>2010-05-22T05:15:48Z</time>
      </trkpt>
      <trkpt lat="45.2191" lon="6.1877">
        <ele>2256.3515625</ele>
        <time>2010-05-22T05:16:25Z</time>
      </trkpt>
      <trkpt lat="45.21886" lon="6.18749">
        <ele>2263.5612793</ele>
        <time>2010-05-22T05:17:02Z</time>
      </trkpt>
      <trkpt lat="45.21878" lon="6.18742">
        <ele>2266.4453125</ele>
        <time>2010-05-22T05:17:15Z</time>
      </trkpt>
      <trkpt lat="45.21862" lon="6.18726">
        <ele>2271.2519531</ele>
        <time>2010-05-22T05:17:42Z</time>
      </trkpt>
      <trkpt lat="45.21855" lon="6.18717">
        <ele>2274.1359863</ele>
        <time>2010-05-22T05:17:54Z</time>
      </trkpt>
      <trkpt lat="45.2184" lon="6.18698">
        <ele>2277.9812012</ele>
        <time>2010-05-22T05:18:19Z</time>
      </trkpt>
      <trkpt lat="45.21818" lon="6.18667">
        <ele>2284.7106934</ele>
        <time>2010-05-22T05:18:59Z</time>
      </trkpt>
      <trkpt lat="45.2181" lon="6.18656">
        <ele>2286.1525879</ele>
        <time>2010-05-22T05:19:11Z</time>
      </trkpt>
      <trkpt lat="45.21795" lon="6.18636">
        <ele>2287.5944824</ele>
        <time>2010-05-22T05:19:33Z</time>
      </trkpt>
      <trkpt lat="45.21788" lon="6.18627">
        <ele>2289.5170898</ele>
        <time>2010-05-22T05:19:45Z</time>
      </trkpt>
      <trkpt lat="45.21772" lon="6.1861">
        <ele>2292.401123</ele>
        <time>2010-05-22T05:20:07Z</time>
      </trkpt>
      <trkpt lat="45.21747" lon="6.18584">
        <ele>2296.7268066</ele>
        <time>2010-05-22T05:20:39Z</time>
      </trkpt>
      <trkpt lat="45.21739" lon="6.18577">
        <ele>2297.6882324</ele>
        <time>2010-05-22T05:20:50Z</time>
      </trkpt>
      <trkpt lat="45.21717" lon="6.18547">
        <ele>2307.3015137</ele>
        <time>2010-05-22T05:21:39Z</time>
      </trkpt>
      <trkpt lat="45.21704" lon="6.18523">
        <ele>2314.9919434</ele>
        <time>2010-05-22T05:22:14Z</time>
      </trkpt>
      <trkpt lat="45.21697" lon="6.18512">
        <ele>2319.3181152</ele>
        <time>2010-05-22T05:22:30Z</time>
      </trkpt>
      <trkpt lat="45.21692" lon="6.185">
        <ele>2322.2019043</ele>
        <time>2010-05-22T05:22:46Z</time>
      </trkpt>
      <trkpt lat="45.21677" lon="6.18472">
        <ele>2331.8149414</ele>
        <time>2010-05-22T05:23:31Z</time>
      </trkpt>
      <trkpt lat="45.2167" lon="6.18461">
        <ele>2334.2185059</ele>
        <time>2010-05-22T05:23:47Z</time>
      </trkpt>
      <trkpt lat="45.21636" lon="6.18433">
        <ele>2341.4282227</ele>
        <time>2010-05-22T05:24:44Z</time>
      </trkpt>
      <trkpt lat="45.21627" lon="6.18428">
        <ele>2341.9089355</ele>
        <time>2010-05-22T05:24:56Z</time>
      </trkpt>
      <trkpt lat="45.21618" lon="6.18423">
        <ele>2343.3508301</ele>
        <time>2010-05-22T05:25:08Z</time>
      </trkpt>
      <trkpt lat="45.21598" lon="6.18412">
        <ele>2346.2348633</ele>
        <time>2010-05-22T05:25:33Z</time>
      </trkpt>
      <trkpt lat="45.21589" lon="6.18404">
        <ele>2347.6767578</ele>
        <time>2010-05-22T05:25:43Z</time>
      </trkpt>
      <trkpt lat="45.2157" lon="6.18396">
        <ele>2350.560791</ele>
        <time>2010-05-22T05:26:07Z</time>
      </trkpt>
      <trkpt lat="45.21558" lon="6.18387">
        <ele>2352.0026855</ele>
        <time>2010-05-22T05:26:32Z</time>
      </trkpt>
      <trkpt lat="45.21541" lon="6.1838">
        <ele>2356.3286133</ele>
        <time>2010-05-22T05:26:58Z</time>
      </trkpt>
      <trkpt lat="45.21532" lon="6.18373">
        <ele>2358.2512207</ele>
        <time>2010-05-22T05:27:11Z</time>
      </trkpt>
      <trkpt lat="45.21497" lon="6.18341">
        <ele>2370.7485352</ele>
        <time>2010-05-22T05:28:08Z</time>
      </trkpt>
      <trkpt lat="45.21489" lon="6.18333">
        <ele>2373.1518555</ele>
        <time>2010-05-22T05:28:23Z</time>
      </trkpt>
      <trkpt lat="45.21481" lon="6.18328">
        <ele>2376.9970703</ele>
        <time>2010-05-22T05:28:39Z</time>
      </trkpt>
      <trkpt lat="45.21472" lon="6.1832">
        <ele>2378.4389648</ele>
        <time>2010-05-22T05:29:04Z</time>
      </trkpt>
      <trkpt lat="45.21447" lon="6.18298">
        <ele>2387.0908203</ele>
        <time>2010-05-22T05:29:48Z</time>
      </trkpt>
      <trkpt lat="45.21404" lon="6.18262">
        <ele>2405.355957</ele>
        <time>2010-05-22T05:31:10Z</time>
      </trkpt>
      <trkpt lat="45.21396" lon="6.18255">
        <ele>2410.1623535</ele>
        <time>2010-05-22T05:31:27Z</time>
      </trkpt>
      <trkpt lat="45.21387" lon="6.18247">
        <ele>2412.0852051</ele>
        <time>2010-05-22T05:31:44Z</time>
      </trkpt>
      <trkpt lat="45.21367" lon="6.1823">
        <ele>2420.2563477</ele>
        <time>2010-05-22T05:32:21Z</time>
      </trkpt>
      <trkpt lat="45.21357" lon="6.18223">
        <ele>2422.659668</ele>
        <time>2010-05-22T05:33:47Z</time>
      </trkpt>
      <trkpt lat="45.2135" lon="6.18217">
        <ele>2426.5048828</ele>
        <time>2010-05-22T05:34:02Z</time>
      </trkpt>
      <trkpt lat="45.21343" lon="6.18209">
        <ele>2429.8696289</ele>
        <time>2010-05-22T05:34:16Z</time>
      </trkpt>
      <trkpt lat="45.21324" lon="6.18189">
        <ele>2438.0407715</ele>
        <time>2010-05-22T05:34:51Z</time>
      </trkpt>
      <trkpt lat="45.21316" lon="6.18181">
        <ele>2441.4052734</ele>
        <time>2010-05-22T05:35:06Z</time>
      </trkpt>
      <trkpt lat="45.21308" lon="6.18174">
        <ele>2441.8859863</ele>
        <time>2010-05-22T05:35:21Z</time>
      </trkpt>
      <trkpt lat="45.21297" lon="6.18166">
        <ele>2445.2507324</ele>
        <time>2010-05-22T05:35:38Z</time>
      </trkpt>
      <trkpt lat="45.21275" lon="6.18144">
        <ele>2453.421875</ele>
        <time>2010-05-22T05:36:16Z</time>
      </trkpt>
      <trkpt lat="45.21268" lon="6.18134">
        <ele>2458.7089844</ele>
        <time>2010-05-22T05:36:32Z</time>
      </trkpt>
      <trkpt lat="45.2126" lon="6.18127">
        <ele>2461.5932617</ele>
        <time>2010-05-22T05:36:50Z</time>
      </trkpt>
      <trkpt lat="45.21245" lon="6.18112">
        <ele>2468.8029785</ele>
        <time>2010-05-22T05:37:20Z</time>
      </trkpt>
      <trkpt lat="45.21219" lon="6.1809">
        <ele>2478.4162598</ele>
        <time>2010-05-22T05:38:11Z</time>
      </trkpt>
      <trkpt lat="45.2121" lon="6.18079">
        <ele>2482.7419434</ele>
        <time>2010-05-22T05:38:32Z</time>
      </trkpt>
      <trkpt lat="45.212" lon="6.1807">
        <ele>2487.0678711</ele>
        <time>2010-05-22T05:38:53Z</time>
      </trkpt>
      <trkpt lat="45.21178" lon="6.18051">
        <ele>2496.6811523</ele>
        <time>2010-05-22T05:39:30Z</time>
      </trkpt>
      <trkpt lat="45.21168" lon="6.18042">
        <ele>2498.6037598</ele>
        <time>2010-05-22T05:39:45Z</time>
      </trkpt>
      <trkpt lat="45.21154" lon="6.18041">
        <ele>2501.9682617</ele>
        <time>2010-05-22T05:40:11Z</time>
      </trkpt>
      <trkpt lat="45.21142" lon="6.18033">
        <ele>2505.8134766</ele>
        <time>2010-05-22T05:40:27Z</time>
      </trkpt>
      <trkpt lat="45.21124" lon="6.18026">
        <ele>2511.5817871</ele>
        <time>2010-05-22T05:41:07Z</time>
      </trkpt>
      <trkpt lat="45.21116" lon="6.18021">
        <ele>2515.427002</ele>
        <time>2010-05-22T05:41:20Z</time>
      </trkpt>
      <trkpt lat="45.21098" lon="6.18011">
        <ele>2519.2722168</ele>
        <time>2010-05-22T05:41:45Z</time>
      </trkpt>
      <trkpt lat="45.21079" lon="6.18004">
        <ele>2520.7141113</ele>
        <time>2010-05-22T05:42:09Z</time>
      </trkpt>
      <trkpt lat="45.21059" lon="6.18">
        <ele>2523.1174316</ele>
        <time>2010-05-22T05:42:37Z</time>
      </trkpt>
      <trkpt lat="45.21048" lon="6.17999">
        <ele>2524.5595703</ele>
        <time>2010-05-22T05:42:51Z</time>
      </trkpt>
      <trkpt lat="45.21019" lon="6.17991">
        <ele>2523.1174316</ele>
        <time>2010-05-22T05:44:47Z</time>
      </trkpt>
      <trkpt lat="45.21009" lon="6.1799">
        <ele>2522.6367188</ele>
        <time>2010-05-22T05:44:56Z</time>
      </trkpt>
      <trkpt lat="45.20989" lon="6.17986">
        <ele>2522.1560059</ele>
        <time>2010-05-22T05:45:12Z</time>
      </trkpt>
      <trkpt lat="45.20933" lon="6.17961">
        <ele>2522.6367188</ele>
        <time>2010-05-22T05:46:07Z</time>
      </trkpt>
      <trkpt lat="45.20924" lon="6.17956">
        <ele>2523.5979004</ele>
        <time>2010-05-22T05:46:34Z</time>
      </trkpt>
      <trkpt lat="45.20914" lon="6.17952">
        <ele>2523.5979004</ele>
        <time>2010-05-22T05:46:43Z</time>
      </trkpt>
      <trkpt lat="45.20864" lon="6.17937">
        <ele>2521.1945801</ele>
        <time>2010-05-22T05:47:26Z</time>
      </trkpt>
      <trkpt lat="45.20845" lon="6.17932">
        <ele>2521.675293</ele>
        <time>2010-05-22T05:47:44Z</time>
      </trkpt>
      <trkpt lat="45.20834" lon="6.1793">
        <ele>2519.7526855</ele>
        <time>2010-05-22T05:47:53Z</time>
      </trkpt>
      <trkpt lat="45.20824" lon="6.17928">
        <ele>2518.7915039</ele>
        <time>2010-05-22T05:48:02Z</time>
      </trkpt>
      <trkpt lat="45.20766" lon="6.17911">
        <ele>2511.5817871</ele>
        <time>2010-05-22T05:48:43Z</time>
      </trkpt>
      <trkpt lat="45.20757" lon="6.17913">
        <ele>2511.5817871</ele>
        <time>2010-05-22T05:48:53Z</time>
      </trkpt>
      <trkpt lat="45.20747" lon="6.17916">
        <ele>2510.1396484</ele>
        <time>2010-05-22T05:49:03Z</time>
      </trkpt>
      <trkpt lat="45.20721" lon="6.17894">
        <ele>2510.1396484</ele>
        <time>2010-05-22T05:49:23Z</time>
      </trkpt>
      <trkpt lat="45.20676" lon="6.17895">
        <ele>2508.6977539</ele>
        <time>2010-05-22T05:50:14Z</time>
      </trkpt>
      <trkpt lat="45.20656" lon="6.1789">
        <ele>2507.7363281</ele>
        <time>2010-05-22T05:50:29Z</time>
      </trkpt>
      <trkpt lat="45.20645" lon="6.17885">
        <ele>2507.2556152</ele>
        <time>2010-05-22T05:50:35Z</time>
      </trkpt>
      <trkpt lat="45.20636" lon="6.17882">
        <ele>2506.7749023</ele>
        <time>2010-05-22T05:50:42Z</time>
      </trkpt>
      <trkpt lat="45.20588" lon="6.17861">
        <ele>2503.4104004</ele>
        <time>2010-05-22T05:51:21Z</time>
      </trkpt>
      <trkpt lat="45.2058" lon="6.17861">
        <ele>2501.9682617</ele>
        <time>2010-05-22T05:51:28Z</time>
      </trkpt>
      <trkpt lat="45.20549" lon="6.1784">
        <ele>2497.6425781</ele>
        <time>2010-05-22T05:51:56Z</time>
      </trkpt>
      <trkpt lat="45.20541" lon="6.17839">
        <ele>2495.2392578</ele>
        <time>2010-05-22T05:52:05Z</time>
      </trkpt>
      <trkpt lat="45.20499" lon="6.17814">
        <ele>2481.7807617</ele>
        <time>2010-05-22T05:52:28Z</time>
      </trkpt>
      <trkpt lat="45.20491" lon="6.17802">
        <ele>2480.8195801</ele>
        <time>2010-05-22T05:52:33Z</time>
      </trkpt>
      <trkpt lat="45.20474" lon="6.17785">
        <ele>2473.609375</ele>
        <time>2010-05-22T05:52:44Z</time>
      </trkpt>
      <trkpt lat="45.20471" lon="6.17766">
        <ele>2471.6867676</ele>
        <time>2010-05-22T05:52:47Z</time>
      </trkpt>
      <trkpt lat="45.20457" lon="6.17752">
        <ele>2468.8029785</ele>
        <time>2010-05-22T05:52:50Z</time>
      </trkpt>
      <trkpt lat="45.20423" lon="6.17712">
        <ele>2457.2670898</ele>
        <time>2010-05-22T05:53:12Z</time>
      </trkpt>
      <trkpt lat="45.20419" lon="6.17698">
        <ele>2454.8637695</ele>
        <time>2010-05-22T05:53:17Z</time>
      </trkpt>
      <trkpt lat="45.20419" lon="6.17693">
        <ele>2452.9411621</ele>
        <time>2010-05-22T05:53:22Z</time>
      </trkpt>
      <trkpt lat="45.20405" lon="6.1767">
        <ele>2451.9797363</ele>
        <time>2010-05-22T05:53:27Z</time>
      </trkpt>
      <trkpt lat="45.2038" lon="6.17595">
        <ele>2439.482666</ele>
        <time>2010-05-22T05:54:01Z</time>
      </trkpt>
      <trkpt lat="45.20383" lon="6.17588">
        <ele>2437.5600586</ele>
        <time>2010-05-22T05:54:03Z</time>
      </trkpt>
      <trkpt lat="45.20383" lon="6.1755">
        <ele>2437.5600586</ele>
        <time>2010-05-22T05:54:06Z</time>
      </trkpt>
      <trkpt lat="45.20377" lon="6.17546">
        <ele>2436.1181641</ele>
        <time>2010-05-22T05:54:33Z</time>
      </trkpt>
      <trkpt lat="45.20358" lon="6.17556">
        <ele>2433.2341309</ele>
        <time>2010-05-22T05:54:38Z</time>
      </trkpt>
      <trkpt lat="45.20351" lon="6.17547">
        <ele>2430.8310547</ele>
        <time>2010-05-22T05:54:43Z</time>
      </trkpt>
      <trkpt lat="45.20341" lon="6.17544">
        <ele>2432.753418</ele>
        <time>2010-05-22T05:54:55Z</time>
      </trkpt>
      <trkpt lat="45.20339" lon="6.17536">
        <ele>2435.1567383</ele>
        <time>2010-05-22T05:55:41Z</time>
      </trkpt>
      <trkpt lat="45.2033" lon="6.17529">
        <ele>2435.6374512</ele>
        <time>2010-05-22T05:55:57Z</time>
      </trkpt>
      <trkpt lat="45.20324" lon="6.17526">
        <ele>2438.5214844</ele>
        <time>2010-05-22T05:57:34Z</time>
      </trkpt>
      <trkpt lat="45.20311" lon="6.17525">
        <ele>2439.0019531</ele>
        <time>2010-05-22T05:57:57Z</time>
      </trkpt>
      <trkpt lat="45.20304" lon="6.17516">
        <ele>2439.0019531</ele>
        <time>2010-05-22T05:58:07Z</time>
      </trkpt>
      <trkpt lat="45.20298" lon="6.17505">
        <ele>2439.482666</ele>
        <time>2010-05-22T05:58:18Z</time>
      </trkpt>
      <trkpt lat="45.20293" lon="6.1749">
        <ele>2440.9245605</ele>
        <time>2010-05-22T05:58:31Z</time>
      </trkpt>
      <trkpt lat="45.2029" lon="6.17478">
        <ele>2440.9245605</ele>
        <time>2010-05-22T05:58:42Z</time>
      </trkpt>
      <trkpt lat="45.20282" lon="6.17467">
        <ele>2441.8859863</ele>
        <time>2010-05-22T05:58:52Z</time>
      </trkpt>
      <trkpt lat="45.20273" lon="6.17458">
        <ele>2441.8859863</ele>
        <time>2010-05-22T05:59:03Z</time>
      </trkpt>
      <trkpt lat="45.20267" lon="6.17449">
        <ele>2443.3278809</ele>
        <time>2010-05-22T05:59:14Z</time>
      </trkpt>
      <trkpt lat="45.20258" lon="6.17434">
        <ele>2443.8085938</ele>
        <time>2010-05-22T05:59:32Z</time>
      </trkpt>
      <trkpt lat="45.20251" lon="6.17422">
        <ele>2444.2893066</ele>
        <time>2010-05-22T05:59:41Z</time>
      </trkpt>
      <trkpt lat="45.20243" lon="6.17409">
        <ele>2444.2893066</ele>
        <time>2010-05-22T05:59:49Z</time>
      </trkpt>
      <trkpt lat="45.20236" lon="6.17406">
        <ele>2447.1733398</ele>
        <time>2010-05-22T05:59:58Z</time>
      </trkpt>
      <trkpt lat="45.20229" lon="6.17409">
        <ele>2450.057373</ele>
        <time>2010-05-22T06:00:11Z</time>
      </trkpt>
      <trkpt lat="45.20218" lon="6.17405">
        <ele>2451.9797363</ele>
        <time>2010-05-22T06:00:23Z</time>
      </trkpt>
      <trkpt lat="45.20209" lon="6.17403">
        <ele>2452.9411621</ele>
        <time>2010-05-22T06:00:34Z</time>
      </trkpt>
      <trkpt lat="45.20199" lon="6.17403">
        <ele>2454.3830566</ele>
        <time>2010-05-22T06:00:45Z</time>
      </trkpt>
      <trkpt lat="45.20179" lon="6.17393">
        <ele>2452.9411621</ele>
        <time>2010-05-22T06:01:06Z</time>
      </trkpt>
      <trkpt lat="45.20169" lon="6.17386">
        <ele>2453.421875</ele>
        <time>2010-05-22T06:01:15Z</time>
      </trkpt>
      <trkpt lat="45.2016" lon="6.17378">
        <ele>2454.8637695</ele>
        <time>2010-05-22T06:01:25Z</time>
      </trkpt>
      <trkpt lat="45.20153" lon="6.17368">
        <ele>2454.3830566</ele>
        <time>2010-05-22T06:01:35Z</time>
      </trkpt>
      <trkpt lat="45.20142" lon="6.17362">
        <ele>2451.9797363</ele>
        <time>2010-05-22T06:01:43Z</time>
      </trkpt>
      <trkpt lat="45.20132" lon="6.1736">
        <ele>2451.0185547</ele>
        <time>2010-05-22T06:01:50Z</time>
      </trkpt>
      <trkpt lat="45.20124" lon="6.17353">
        <ele>2450.057373</ele>
        <time>2010-05-22T06:02:00Z</time>
      </trkpt>
      <trkpt lat="45.20114" lon="6.17344">
        <ele>2448.1345215</ele>
        <time>2010-05-22T06:02:07Z</time>
      </trkpt>
      <trkpt lat="45.20105" lon="6.17337">
        <ele>2446.692627</ele>
        <time>2010-05-22T06:02:14Z</time>
      </trkpt>
      <trkpt lat="45.20095" lon="6.17334">
        <ele>2443.8085938</ele>
        <time>2010-05-22T06:02:21Z</time>
      </trkpt>
      <trkpt lat="45.20085" lon="6.17335">
        <ele>2442.847168</ele>
        <time>2010-05-22T06:02:26Z</time>
      </trkpt>
      <trkpt lat="45.20074" lon="6.17338">
        <ele>2443.3278809</ele>
        <time>2010-05-22T06:02:33Z</time>
      </trkpt>
      <trkpt lat="45.20064" lon="6.1734">
        <ele>2442.3666992</ele>
        <time>2010-05-22T06:02:41Z</time>
      </trkpt>
      <trkpt lat="45.20053" lon="6.17342">
        <ele>2443.8085938</ele>
        <time>2010-05-22T06:02:50Z</time>
      </trkpt>
      <trkpt lat="45.20043" lon="6.17345">
        <ele>2442.3666992</ele>
        <time>2010-05-22T06:02:58Z</time>
      </trkpt>
      <trkpt lat="45.20034" lon="6.17349">
        <ele>2444.7700195</ele>
        <time>2010-05-22T06:03:12Z</time>
      </trkpt>
      <trkpt lat="45.20024" lon="6.17352">
        <ele>2445.2507324</ele>
        <time>2010-05-22T06:03:23Z</time>
      </trkpt>
      <trkpt lat="45.20014" lon="6.17354">
        <ele>2445.2507324</ele>
        <time>2010-05-22T06:03:32Z</time>
      </trkpt>
      <trkpt lat="45.20007" lon="6.17362">
        <ele>2446.2121582</ele>
        <time>2010-05-22T06:03:43Z</time>
      </trkpt>
      <trkpt lat="45.20006" lon="6.17376">
        <ele>2447.6540527</ele>
        <time>2010-05-22T06:03:56Z</time>
      </trkpt>
      <trkpt lat="45.2" lon="6.17398">
        <ele>2450.057373</ele>
        <time>2010-05-22T06:04:18Z</time>
      </trkpt>
      <trkpt lat="45.1999" lon="6.17395">
        <ele>2450.5378418</ele>
        <time>2010-05-22T06:04:28Z</time>
      </trkpt>
      <trkpt lat="45.19979" lon="6.1739">
        <ele>2451.0185547</ele>
        <time>2010-05-22T06:04:37Z</time>
      </trkpt>
      <trkpt lat="45.1997" lon="6.17386">
        <ele>2451.0185547</ele>
        <time>2010-05-22T06:04:45Z</time>
      </trkpt>
      <trkpt lat="45.19961" lon="6.17382">
        <ele>2449.5766602</ele>
        <time>2010-05-22T06:04:53Z</time>
      </trkpt>
      <trkpt lat="45.19951" lon="6.17377">
        <ele>2449.5766602</ele>
        <time>2010-05-22T06:05:02Z</time>
      </trkpt>
      <trkpt lat="45.19942" lon="6.17374">
        <ele>2449.0959473</ele>
        <time>2010-05-22T06:05:10Z</time>
      </trkpt>
      <trkpt lat="45.19933" lon="6.17372">
        <ele>2448.6152344</ele>
        <time>2010-05-22T06:05:19Z</time>
      </trkpt>
      <trkpt lat="45.19923" lon="6.17367">
        <ele>2448.1345215</ele>
        <time>2010-05-22T06:05:26Z</time>
      </trkpt>
      <trkpt lat="45.19913" lon="6.17363">
        <ele>2448.6152344</ele>
        <time>2010-05-22T06:05:35Z</time>
      </trkpt>
      <trkpt lat="45.19903" lon="6.17363">
        <ele>2449.0959473</ele>
        <time>2010-05-22T06:05:43Z</time>
      </trkpt>
      <trkpt lat="45.19894" lon="6.17362">
        <ele>2449.5766602</ele>
        <time>2010-05-22T06:05:52Z</time>
      </trkpt>
      <trkpt lat="45.19885" lon="6.1736">
        <ele>2449.0959473</ele>
        <time>2010-05-22T06:06:01Z</time>
      </trkpt>
      <trkpt lat="45.19876" lon="6.17357">
        <ele>2450.057373</ele>
        <time>2010-05-22T06:06:11Z</time>
      </trkpt>
      <trkpt lat="45.19866" lon="6.17349">
        <ele>2451.4992676</ele>
        <time>2010-05-22T06:06:21Z</time>
      </trkpt>
      <trkpt lat="45.19858" lon="6.17342">
        <ele>2451.0185547</ele>
        <time>2010-05-22T06:06:30Z</time>
      </trkpt>
      <trkpt lat="45.19848" lon="6.17338">
        <ele>2451.4992676</ele>
        <time>2010-05-22T06:06:39Z</time>
      </trkpt>
      <trkpt lat="45.19839" lon="6.17334">
        <ele>2451.0185547</ele>
        <time>2010-05-22T06:06:50Z</time>
      </trkpt>
      <trkpt lat="45.19827" lon="6.17324">
        <ele>2451.0185547</ele>
        <time>2010-05-22T06:07:12Z</time>
      </trkpt>
      <trkpt lat="45.19819" lon="6.17317">
        <ele>2450.5378418</ele>
        <time>2010-05-22T06:07:21Z</time>
      </trkpt>
      <trkpt lat="45.19801" lon="6.17307">
        <ele>2451.0185547</ele>
        <time>2010-05-22T06:07:40Z</time>
      </trkpt>
      <trkpt lat="45.1979" lon="6.17303">
        <ele>2450.5378418</ele>
        <time>2010-05-22T06:07:49Z</time>
      </trkpt>
      <trkpt lat="45.1978" lon="6.17302">
        <ele>2450.5378418</ele>
        <time>2010-05-22T06:07:57Z</time>
      </trkpt>
      <trkpt lat="45.1977" lon="6.17303">
        <ele>2449.0959473</ele>
        <time>2010-05-22T06:08:05Z</time>
      </trkpt>
      <trkpt lat="45.1976" lon="6.17303">
        <ele>2451.0185547</ele>
        <time>2010-05-22T06:08:16Z</time>
      </trkpt>
      <trkpt lat="45.1975" lon="6.17303">
        <ele>2451.9797363</ele>
        <time>2010-05-22T06:08:27Z</time>
      </trkpt>
      <trkpt lat="45.1974" lon="6.17303">
        <ele>2452.4604492</ele>
        <time>2010-05-22T06:08:37Z</time>
      </trkpt>
      <trkpt lat="45.19731" lon="6.1731">
        <ele>2451.9797363</ele>
        <time>2010-05-22T06:08:46Z</time>
      </trkpt>
      <trkpt lat="45.19725" lon="6.1732">
        <ele>2452.4604492</ele>
        <time>2010-05-22T06:08:55Z</time>
      </trkpt>
      <trkpt lat="45.1972" lon="6.17332">
        <ele>2451.9797363</ele>
        <time>2010-05-22T06:09:04Z</time>
      </trkpt>
      <trkpt lat="45.19718" lon="6.17345">
        <ele>2451.4992676</ele>
        <time>2010-05-22T06:09:11Z</time>
      </trkpt>
      <trkpt lat="45.19717" lon="6.17359">
        <ele>2451.4992676</ele>
        <time>2010-05-22T06:09:20Z</time>
      </trkpt>
      <trkpt lat="45.19715" lon="6.17373">
        <ele>2452.4604492</ele>
        <time>2010-05-22T06:09:31Z</time>
      </trkpt>
      <trkpt lat="45.19709" lon="6.17384">
        <ele>2452.9411621</ele>
        <time>2010-05-22T06:09:49Z</time>
      </trkpt>
      <trkpt lat="45.19701" lon="6.1739">
        <ele>2454.3830566</ele>
        <time>2010-05-22T06:10:01Z</time>
      </trkpt>
      <trkpt lat="45.19691" lon="6.17394">
        <ele>2455.8249512</ele>
        <time>2010-05-22T06:10:12Z</time>
      </trkpt>
      <trkpt lat="45.19671" lon="6.17398">
        <ele>2461.1125488</ele>
        <time>2010-05-22T06:10:36Z</time>
      </trkpt>
      <trkpt lat="45.19648" lon="6.17399">
        <ele>2463.9963379</ele>
        <time>2010-05-22T06:11:14Z</time>
      </trkpt>
      <trkpt lat="45.19608" lon="6.17402">
        <ele>2468.3222656</ele>
        <time>2010-05-22T06:11:59Z</time>
      </trkpt>
      <trkpt lat="45.19599" lon="6.17399">
        <ele>2471.6867676</ele>
        <time>2010-05-22T06:13:55Z</time>
      </trkpt>
      <trkpt lat="45.1959" lon="6.17395">
        <ele>2472.6481934</ele>
        <time>2010-05-22T06:14:05Z</time>
      </trkpt>
      <trkpt lat="45.1958" lon="6.17393">
        <ele>2472.6481934</ele>
        <time>2010-05-22T06:14:14Z</time>
      </trkpt>
      <trkpt lat="45.19571" lon="6.1739">
        <ele>2472.1674805</ele>
        <time>2010-05-22T06:14:24Z</time>
      </trkpt>
      <trkpt lat="45.19541" lon="6.1738">
        <ele>2474.5708008</ele>
        <time>2010-05-22T06:14:54Z</time>
      </trkpt>
      <trkpt lat="45.19531" lon="6.17379">
        <ele>2475.5319824</ele>
        <time>2010-05-22T06:15:05Z</time>
      </trkpt>
      <trkpt lat="45.19519" lon="6.17382">
        <ele>2476.0129395</ele>
        <time>2010-05-22T06:15:27Z</time>
      </trkpt>
      <trkpt lat="45.19499" lon="6.17379">
        <ele>2478.4162598</ele>
        <time>2010-05-22T06:15:45Z</time>
      </trkpt>
      <trkpt lat="45.19489" lon="6.17379">
        <ele>2478.8967285</ele>
        <time>2010-05-22T06:15:54Z</time>
      </trkpt>
      <trkpt lat="45.19479" lon="6.17378">
        <ele>2477.9355469</ele>
        <time>2010-05-22T06:16:02Z</time>
      </trkpt>
      <trkpt lat="45.19469" lon="6.17379">
        <ele>2477.454834</ele>
        <time>2010-05-22T06:16:11Z</time>
      </trkpt>
      <trkpt lat="45.19448" lon="6.17372">
        <ele>2477.454834</ele>
        <time>2010-05-22T06:16:29Z</time>
      </trkpt>
      <trkpt lat="45.19399" lon="6.17351">
        <ele>2471.6867676</ele>
        <time>2010-05-22T06:17:05Z</time>
      </trkpt>
      <trkpt lat="45.19388" lon="6.17346">
        <ele>2473.1289063</ele>
        <time>2010-05-22T06:17:13Z</time>
      </trkpt>
      <trkpt lat="45.19378" lon="6.17342">
        <ele>2473.1289063</ele>
        <time>2010-05-22T06:17:20Z</time>
      </trkpt>
      <trkpt lat="45.19366" lon="6.17341">
        <ele>2472.1674805</ele>
        <time>2010-05-22T06:17:27Z</time>
      </trkpt>
      <trkpt lat="45.19349" lon="6.17338">
        <ele>2473.1289063</ele>
        <time>2010-05-22T06:17:45Z</time>
      </trkpt>
      <trkpt lat="45.1934" lon="6.17336">
        <ele>2472.6481934</ele>
        <time>2010-05-22T06:17:56Z</time>
      </trkpt>
      <trkpt lat="45.19331" lon="6.17336">
        <ele>2472.1674805</ele>
        <time>2010-05-22T06:18:04Z</time>
      </trkpt>
      <trkpt lat="45.19321" lon="6.17332">
        <ele>2471.6867676</ele>
        <time>2010-05-22T06:18:12Z</time>
      </trkpt>
      <trkpt lat="45.19282" lon="6.17315">
        <ele>2471.6867676</ele>
        <time>2010-05-22T06:18:48Z</time>
      </trkpt>
      <trkpt lat="45.19273" lon="6.17309">
        <ele>2472.1674805</ele>
        <time>2010-05-22T06:18:57Z</time>
      </trkpt>
      <trkpt lat="45.19238" lon="6.17287">
        <ele>2474.0900879</ele>
        <time>2010-05-22T06:19:35Z</time>
      </trkpt>
      <trkpt lat="45.19229" lon="6.17284">
        <ele>2475.0512695</ele>
        <time>2010-05-22T06:19:44Z</time>
      </trkpt>
      <trkpt lat="45.19213" lon="6.17269">
        <ele>2475.0512695</ele>
        <time>2010-05-22T06:20:03Z</time>
      </trkpt>
      <trkpt lat="45.19197" lon="6.17251">
        <ele>2476.4936523</ele>
        <time>2010-05-22T06:20:28Z</time>
      </trkpt>
      <trkpt lat="45.19187" lon="6.17244">
        <ele>2476.9743652</ele>
        <time>2010-05-22T06:20:37Z</time>
      </trkpt>
      <trkpt lat="45.19155" lon="6.17232">
        <ele>2478.4162598</ele>
        <time>2010-05-22T06:21:18Z</time>
      </trkpt>
      <trkpt lat="45.19142" lon="6.17225">
        <ele>2478.8967285</ele>
        <time>2010-05-22T06:21:34Z</time>
      </trkpt>
      <trkpt lat="45.19132" lon="6.17223">
        <ele>2479.8581543</ele>
        <time>2010-05-22T06:21:44Z</time>
      </trkpt>
      <trkpt lat="45.19108" lon="6.17223">
        <ele>2478.8967285</ele>
        <time>2010-05-22T06:22:24Z</time>
      </trkpt>
      <trkpt lat="45.19099" lon="6.17227">
        <ele>2481.3000488</ele>
        <time>2010-05-22T06:22:41Z</time>
      </trkpt>
      <trkpt lat="45.1909" lon="6.17231">
        <ele>2481.3000488</ele>
        <time>2010-05-22T06:22:53Z</time>
      </trkpt>
      <trkpt lat="45.1908" lon="6.17237">
        <ele>2482.7419434</ele>
        <time>2010-05-22T06:23:04Z</time>
      </trkpt>
      <trkpt lat="45.19061" lon="6.17246">
        <ele>2485.6259766</ele>
        <time>2010-05-22T06:23:24Z</time>
      </trkpt>
      <trkpt lat="45.19042" lon="6.17252">
        <ele>2488.0292969</ele>
        <time>2010-05-22T06:23:48Z</time>
      </trkpt>
      <trkpt lat="45.19029" lon="6.17248">
        <ele>2490.9130859</ele>
        <time>2010-05-22T06:23:59Z</time>
      </trkpt>
      <trkpt lat="45.18999" lon="6.1724">
        <ele>2494.7585449</ele>
        <time>2010-05-22T06:24:31Z</time>
      </trkpt>
      <trkpt lat="45.1899" lon="6.17239">
        <ele>2495.7199707</ele>
        <time>2010-05-22T06:24:42Z</time>
      </trkpt>
      <trkpt lat="45.18982" lon="6.17238">
        <ele>2495.7199707</ele>
        <time>2010-05-22T06:24:52Z</time>
      </trkpt>
      <trkpt lat="45.18961" lon="6.17243">
        <ele>2497.6425781</ele>
        <time>2010-05-22T06:25:28Z</time>
      </trkpt>
      <trkpt lat="45.18952" lon="6.17248">
        <ele>2499.5651855</ele>
        <time>2010-05-22T06:25:41Z</time>
      </trkpt>
      <trkpt lat="45.18944" lon="6.17253">
        <ele>2501.9682617</ele>
        <time>2010-05-22T06:25:55Z</time>
      </trkpt>
      <trkpt lat="45.189" lon="6.17259">
        <ele>2516.3881836</ele>
        <time>2010-05-22T06:27:07Z</time>
      </trkpt>
      <trkpt lat="45.18888" lon="6.17255">
        <ele>2518.7915039</ele>
        <time>2010-05-22T06:27:20Z</time>
      </trkpt>
      <trkpt lat="45.1887" lon="6.17252">
        <ele>2520.2333984</ele>
        <time>2010-05-22T06:27:44Z</time>
      </trkpt>
      <trkpt lat="45.18844" lon="6.17251">
        <ele>2521.675293</ele>
        <time>2010-05-22T06:29:13Z</time>
      </trkpt>
      <trkpt lat="45.18813" lon="6.17241">
        <ele>2523.1174316</ele>
        <time>2010-05-22T06:29:52Z</time>
      </trkpt>
      <trkpt lat="45.18802" lon="6.17238">
        <ele>2525.520752</ele>
        <time>2010-05-22T06:30:03Z</time>
      </trkpt>
      <trkpt lat="45.18792" lon="6.17238">
        <ele>2525.0400391</ele>
        <time>2010-05-22T06:31:13Z</time>
      </trkpt>
      <trkpt lat="45.18771" lon="6.17237">
        <ele>2524.0788574</ele>
        <time>2010-05-22T06:31:29Z</time>
      </trkpt>
      <trkpt lat="45.18761" lon="6.17237">
        <ele>2522.6367188</ele>
        <time>2010-05-22T06:31:35Z</time>
      </trkpt>
      <trkpt lat="45.18751" lon="6.17237">
        <ele>2519.7526855</ele>
        <time>2010-05-22T06:31:41Z</time>
      </trkpt>
      <trkpt lat="45.18721" lon="6.17228">
        <ele>2514.9462891</ele>
        <time>2010-05-22T06:32:01Z</time>
      </trkpt>
      <trkpt lat="45.18624" lon="6.17227">
        <ele>2504.8522949</ele>
        <time>2010-05-22T06:33:01Z</time>
      </trkpt>
      <trkpt lat="45.18614" lon="6.17225">
        <ele>2504.8522949</ele>
        <time>2010-05-22T06:33:10Z</time>
      </trkpt>
      <trkpt lat="45.18604" lon="6.17223">
        <ele>2504.371582</ele>
        <time>2010-05-22T06:33:19Z</time>
      </trkpt>
      <trkpt lat="45.18582" lon="6.17227">
        <ele>2503.4104004</ele>
        <time>2010-05-22T06:33:36Z</time>
      </trkpt>
      <trkpt lat="45.18569" lon="6.17227">
        <ele>2504.8522949</ele>
        <time>2010-05-22T06:33:47Z</time>
      </trkpt>
      <trkpt lat="45.18546" lon="6.17222">
        <ele>2504.8522949</ele>
        <time>2010-05-22T06:34:06Z</time>
      </trkpt>
      <trkpt lat="45.18522" lon="6.17213">
        <ele>2505.3330078</ele>
        <time>2010-05-22T06:34:26Z</time>
      </trkpt>
      <trkpt lat="45.18499" lon="6.17201">
        <ele>2506.7749023</ele>
        <time>2010-05-22T06:34:48Z</time>
      </trkpt>
      <trkpt lat="45.18459" lon="6.17182">
        <ele>2506.2941895</ele>
        <time>2010-05-22T06:35:27Z</time>
      </trkpt>
      <trkpt lat="45.18418" lon="6.17163">
        <ele>2508.6977539</ele>
        <time>2010-05-22T06:36:10Z</time>
      </trkpt>
      <trkpt lat="45.18406" lon="6.1716">
        <ele>2510.1396484</ele>
        <time>2010-05-22T06:36:22Z</time>
      </trkpt>
      <trkpt lat="45.18396" lon="6.17154">
        <ele>2510.1396484</ele>
        <time>2010-05-22T06:36:33Z</time>
      </trkpt>
      <trkpt lat="45.18367" lon="6.17144">
        <ele>2511.1010742</ele>
        <time>2010-05-22T06:37:00Z</time>
      </trkpt>
      <trkpt lat="45.18357" lon="6.17139">
        <ele>2511.5817871</ele>
        <time>2010-05-22T06:37:11Z</time>
      </trkpt>
      <trkpt lat="45.18345" lon="6.17135">
        <ele>2511.5817871</ele>
        <time>2010-05-22T06:37:22Z</time>
      </trkpt>
      <trkpt lat="45.18322" lon="6.17129">
        <ele>2512.0622559</ele>
        <time>2010-05-22T06:37:45Z</time>
      </trkpt>
      <trkpt lat="45.18299" lon="6.17126">
        <ele>2513.9848633</ele>
        <time>2010-05-22T06:38:09Z</time>
      </trkpt>
      <trkpt lat="45.18241" lon="6.17114">
        <ele>2524.0788574</ele>
        <time>2010-05-22T06:39:23Z</time>
      </trkpt>
      <trkpt lat="45.18223" lon="6.1711">
        <ele>2528.4047852</ele>
        <time>2010-05-22T06:39:46Z</time>
      </trkpt>
      <trkpt lat="45.18213" lon="6.17109">
        <ele>2531.7692871</ele>
        <time>2010-05-22T06:40:00Z</time>
      </trkpt>
      <trkpt lat="45.18191" lon="6.17107">
        <ele>2536.5756836</ele>
        <time>2010-05-22T06:40:30Z</time>
      </trkpt>
      <trkpt lat="45.18152" lon="6.17108">
        <ele>2543.7858887</ele>
        <time>2010-05-22T06:41:31Z</time>
      </trkpt>
      <trkpt lat="45.18141" lon="6.17104">
        <ele>2546.189209</ele>
        <time>2010-05-22T06:41:44Z</time>
      </trkpt>
      <trkpt lat="45.18121" lon="6.17096">
        <ele>2551.4763184</ele>
        <time>2010-05-22T06:42:12Z</time>
      </trkpt>
      <trkpt lat="45.18112" lon="6.17092">
        <ele>2553.3989258</ele>
        <time>2010-05-22T06:42:26Z</time>
      </trkpt>
      <trkpt lat="45.18066" lon="6.17067">
        <ele>2565.8959961</ele>
        <time>2010-05-22T06:43:41Z</time>
      </trkpt>
      <trkpt lat="45.18058" lon="6.1706">
        <ele>2568.2993164</ele>
        <time>2010-05-22T06:43:54Z</time>
      </trkpt>
      <trkpt lat="45.18049" lon="6.17052">
        <ele>2571.6638184</ele>
        <time>2010-05-22T06:44:09Z</time>
      </trkpt>
      <trkpt lat="45.18031" lon="6.17043">
        <ele>2576.4707031</ele>
        <time>2010-05-22T06:44:38Z</time>
      </trkpt>
      <trkpt lat="45.18021" lon="6.17038">
        <ele>2578.3933105</ele>
        <time>2010-05-22T06:44:51Z</time>
      </trkpt>
      <trkpt lat="45.17983" lon="6.17021">
        <ele>2586.564209</ele>
        <time>2010-05-22T06:45:57Z</time>
      </trkpt>
      <trkpt lat="45.17975" lon="6.17014">
        <ele>2588.4873047</ele>
        <time>2010-05-22T06:46:10Z</time>
      </trkpt>
      <trkpt lat="45.17966" lon="6.17007">
        <ele>2588.9677734</ele>
        <time>2010-05-22T06:46:24Z</time>
      </trkpt>
      <trkpt lat="45.17957" lon="6.17003">
        <ele>2590.8903809</ele>
        <time>2010-05-22T06:46:38Z</time>
      </trkpt>
      <trkpt lat="45.1794" lon="6.16992">
        <ele>2595.6970215</ele>
        <time>2010-05-22T06:47:04Z</time>
      </trkpt>
      <trkpt lat="45.17932" lon="6.16984">
        <ele>2597.6196289</ele>
        <time>2010-05-22T06:47:23Z</time>
      </trkpt>
      <trkpt lat="45.17893" lon="6.16945">
        <ele>2604.8291016</ele>
        <time>2010-05-22T06:48:20Z</time>
      </trkpt>
      <trkpt lat="45.17884" lon="6.16938">
        <ele>2607.2324219</ele>
        <time>2010-05-22T06:48:32Z</time>
      </trkpt>
      <trkpt lat="45.17876" lon="6.16932">
        <ele>2608.6748047</ele>
        <time>2010-05-22T06:48:44Z</time>
      </trkpt>
      <trkpt lat="45.17859" lon="6.1692">
        <ele>2612.0395508</ele>
        <time>2010-05-22T06:49:10Z</time>
      </trkpt>
      <trkpt lat="45.1785" lon="6.16914">
        <ele>2612.5200195</ele>
        <time>2010-05-22T06:49:22Z</time>
      </trkpt>
      <trkpt lat="45.17815" lon="6.16893">
        <ele>2618.7685547</ele>
        <time>2010-05-22T06:57:22Z</time>
      </trkpt>
      <trkpt lat="45.17805" lon="6.16891">
        <ele>2619.7299805</ele>
        <time>2010-05-22T06:57:33Z</time>
      </trkpt>
      <trkpt lat="45.17795" lon="6.16887">
        <ele>2619.7299805</ele>
        <time>2010-05-22T06:57:44Z</time>
      </trkpt>
      <trkpt lat="45.17777" lon="6.16878">
        <ele>2622.1333008</ele>
        <time>2010-05-22T06:58:07Z</time>
      </trkpt>
      <trkpt lat="45.17767" lon="6.16875">
        <ele>2622.1333008</ele>
        <time>2010-05-22T06:58:18Z</time>
      </trkpt>
      <trkpt lat="45.17707" lon="6.16873">
        <ele>2631.746582</ele>
        <time>2010-05-22T06:59:29Z</time>
      </trkpt>
      <trkpt lat="45.17698" lon="6.16872">
        <ele>2634.6303711</ele>
        <time>2010-05-22T06:59:40Z</time>
      </trkpt>
      <trkpt lat="45.17681" lon="6.16872">
        <ele>2635.5913086</ele>
        <time>2010-05-22T07:00:02Z</time>
      </trkpt>
      <trkpt lat="45.17672" lon="6.16874">
        <ele>2636.5527344</ele>
        <time>2010-05-22T07:00:13Z</time>
      </trkpt>
      <trkpt lat="45.17662" lon="6.16874">
        <ele>2637.9946289</ele>
        <time>2010-05-22T07:00:24Z</time>
      </trkpt>
      <trkpt lat="45.17625" lon="6.1687">
        <ele>2642.3208008</ele>
        <time>2010-05-22T07:01:08Z</time>
      </trkpt>
      <trkpt lat="45.17608" lon="6.16862">
        <ele>2646.1665039</ele>
        <time>2010-05-22T07:01:32Z</time>
      </trkpt>
      <trkpt lat="45.17583" lon="6.16846">
        <ele>2650.9726563</ele>
        <time>2010-05-22T07:02:08Z</time>
      </trkpt>
      <trkpt lat="45.17574" lon="6.1684">
        <ele>2653.3759766</ele>
        <time>2010-05-22T07:02:21Z</time>
      </trkpt>
      <trkpt lat="45.17565" lon="6.16835">
        <ele>2656.2602539</ele>
        <time>2010-05-22T07:02:33Z</time>
      </trkpt>
      <trkpt lat="45.17548" lon="6.16827">
        <ele>2660.5859375</ele>
        <time>2010-05-22T07:03:00Z</time>
      </trkpt>
      <trkpt lat="45.17515" lon="6.16798">
        <ele>2664.4311523</ele>
        <time>2010-05-22T07:03:49Z</time>
      </trkpt>
      <trkpt lat="45.17499" lon="6.16783">
        <ele>2668.7568359</ele>
        <time>2010-05-22T07:04:14Z</time>
      </trkpt>
      <trkpt lat="45.17485" lon="6.16766">
        <ele>2675.9667969</ele>
        <time>2010-05-22T07:04:41Z</time>
      </trkpt>
      <trkpt lat="45.17478" lon="6.16758">
        <ele>2677.8901367</ele>
        <time>2010-05-22T07:04:56Z</time>
      </trkpt>
      <trkpt lat="45.17448" lon="6.1673">
        <ele>2687.0224609</ele>
        <time>2010-05-22T07:05:52Z</time>
      </trkpt>
      <trkpt lat="45.17431" lon="6.16715">
        <ele>2686.5415039</ele>
        <time>2010-05-22T07:10:16Z</time>
      </trkpt>
      <trkpt lat="45.17423" lon="6.16708">
        <ele>2687.9833984</ele>
        <time>2010-05-22T07:10:25Z</time>
      </trkpt>
      <trkpt lat="45.17392" lon="6.1668">
        <ele>2688.4643555</ele>
        <time>2010-05-22T07:10:59Z</time>
      </trkpt>
      <trkpt lat="45.17384" lon="6.16673">
        <ele>2688.9448242</ele>
        <time>2010-05-22T07:11:07Z</time>
      </trkpt>
      <trkpt lat="45.17376" lon="6.16667">
        <ele>2688.4643555</ele>
        <time>2010-05-22T07:11:15Z</time>
      </trkpt>
      <trkpt lat="45.17368" lon="6.1666">
        <ele>2688.4643555</ele>
        <time>2010-05-22T07:11:23Z</time>
      </trkpt>
      <trkpt lat="45.17312" lon="6.16613">
        <ele>2687.9833984</ele>
        <time>2010-05-22T07:12:15Z</time>
      </trkpt>
      <trkpt lat="45.17303" lon="6.16608">
        <ele>2687.5029297</ele>
        <time>2010-05-22T07:12:24Z</time>
      </trkpt>
      <trkpt lat="45.17278" lon="6.16572">
        <ele>2687.5029297</ele>
        <time>2010-05-22T07:13:00Z</time>
      </trkpt>
      <trkpt lat="45.17269" lon="6.16564">
        <ele>2687.5029297</ele>
        <time>2010-05-22T07:13:09Z</time>
      </trkpt>
      <trkpt lat="45.17264" lon="6.16554">
        <ele>2688.4643555</ele>
        <time>2010-05-22T07:13:18Z</time>
      </trkpt>
      <trkpt lat="45.17245" lon="6.16525">
        <ele>2687.0224609</ele>
        <time>2010-05-22T07:13:43Z</time>
      </trkpt>
      <trkpt lat="45.17235" lon="6.16517">
        <ele>2687.5029297</ele>
        <time>2010-05-22T07:13:52Z</time>
      </trkpt>
      <trkpt lat="45.17227" lon="6.16511">
        <ele>2687.5029297</ele>
        <time>2010-05-22T07:14:00Z</time>
      </trkpt>
      <trkpt lat="45.17221" lon="6.16502">
        <ele>2687.0224609</ele>
        <time>2010-05-22T07:14:09Z</time>
      </trkpt>
      <trkpt lat="45.17211" lon="6.16495">
        <ele>2686.0610352</ele>
        <time>2010-05-22T07:14:19Z</time>
      </trkpt>
      <trkpt lat="45.172" lon="6.16492">
        <ele>2686.0610352</ele>
        <time>2010-05-22T07:14:31Z</time>
      </trkpt>
      <trkpt lat="45.17191" lon="6.16485">
        <ele>2688.9448242</ele>
        <time>2010-05-22T07:14:45Z</time>
      </trkpt>
      <trkpt lat="45.17173" lon="6.16475">
        <ele>2690.3867188</ele>
        <time>2010-05-22T07:15:11Z</time>
      </trkpt>
      <trkpt lat="45.17121" lon="6.16429">
        <ele>2693.7514648</ele>
        <time>2010-05-22T07:16:24Z</time>
      </trkpt>
      <trkpt lat="45.17111" lon="6.16424">
        <ele>2693.2709961</ele>
        <time>2010-05-22T07:16:37Z</time>
      </trkpt>
      <trkpt lat="45.17101" lon="6.1642">
        <ele>2693.2709961</ele>
        <time>2010-05-22T07:16:47Z</time>
      </trkpt>
      <trkpt lat="45.17093" lon="6.16412">
        <ele>2693.7514648</ele>
        <time>2010-05-22T07:16:58Z</time>
      </trkpt>
      <trkpt lat="45.17083" lon="6.16405">
        <ele>2695.6738281</ele>
        <time>2010-05-22T07:17:09Z</time>
      </trkpt>
      <trkpt lat="45.17065" lon="6.16396">
        <ele>2696.1547852</ele>
        <time>2010-05-22T07:17:29Z</time>
      </trkpt>
      <trkpt lat="45.17056" lon="6.16388">
        <ele>2697.1157227</ele>
        <time>2010-05-22T07:17:39Z</time>
      </trkpt>
      <trkpt lat="45.17048" lon="6.16379">
        <ele>2698.5581055</ele>
        <time>2010-05-22T07:17:50Z</time>
      </trkpt>
      <trkpt lat="45.17012" lon="6.16355">
        <ele>2700.4804688</ele>
        <time>2010-05-22T07:18:31Z</time>
      </trkpt>
      <trkpt lat="45.17003" lon="6.16351">
        <ele>2700.9614258</ele>
        <time>2010-05-22T07:18:44Z</time>
      </trkpt>
      <trkpt lat="45.16991" lon="6.16345">
        <ele>2701.9223633</ele>
        <time>2010-05-22T07:18:56Z</time>
      </trkpt>
      <trkpt lat="45.16971" lon="6.16335">
        <ele>2706.2485352</ele>
        <time>2010-05-22T07:19:20Z</time>
      </trkpt>
      <trkpt lat="45.16955" lon="6.16323">
        <ele>2710.0942383</ele>
        <time>2010-05-22T07:19:44Z</time>
      </trkpt>
      <trkpt lat="45.16889" lon="6.1629">
        <ele>2719.2265625</ele>
        <time>2010-05-22T07:21:09Z</time>
      </trkpt>
      <trkpt lat="45.1688" lon="6.16286">
        <ele>2721.1489258</ele>
        <time>2010-05-22T07:21:20Z</time>
      </trkpt>
      <trkpt lat="45.1687" lon="6.16281">
        <ele>2723.0717773</ele>
        <time>2010-05-22T07:21:31Z</time>
      </trkpt>
      <trkpt lat="45.16861" lon="6.16276">
        <ele>2723.5522461</ele>
        <time>2010-05-22T07:21:42Z</time>
      </trkpt>
      <trkpt lat="45.16852" lon="6.16273">
        <ele>2725.9555664</ele>
        <time>2010-05-22T07:21:53Z</time>
      </trkpt>
      <trkpt lat="45.16844" lon="6.16271">
        <ele>2726.9169922</ele>
        <time>2010-05-22T07:22:05Z</time>
      </trkpt>
      <trkpt lat="45.16774" lon="6.16244">
        <ele>2730.762207</ele>
        <time>2010-05-22T07:23:29Z</time>
      </trkpt>
      <trkpt lat="45.16756" lon="6.16235">
        <ele>2731.2426758</ele>
        <time>2010-05-22T07:23:51Z</time>
      </trkpt>
      <trkpt lat="45.16738" lon="6.16229">
        <ele>2731.7236328</ele>
        <time>2010-05-22T07:24:11Z</time>
      </trkpt>
      <trkpt lat="45.16719" lon="6.16221">
        <ele>2733.6459961</ele>
        <time>2010-05-22T07:24:31Z</time>
      </trkpt>
      <trkpt lat="45.1671" lon="6.16217">
        <ele>2735.0878906</ele>
        <time>2010-05-22T07:24:41Z</time>
      </trkpt>
      <trkpt lat="45.167" lon="6.16212">
        <ele>2736.0493164</ele>
        <time>2010-05-22T07:24:51Z</time>
      </trkpt>
      <trkpt lat="45.16683" lon="6.16202">
        <ele>2737.4912109</ele>
        <time>2010-05-22T07:25:11Z</time>
      </trkpt>
      <trkpt lat="45.16614" lon="6.16164">
        <ele>2744.2207031</ele>
        <time>2010-05-22T07:26:34Z</time>
      </trkpt>
      <trkpt lat="45.16597" lon="6.16155">
        <ele>2745.1821289</ele>
        <time>2010-05-22T07:27:02Z</time>
      </trkpt>
      <trkpt lat="45.16581" lon="6.16145">
        <ele>2749.9887695</ele>
        <time>2010-05-22T07:27:26Z</time>
      </trkpt>
      <trkpt lat="45.16564" lon="6.16133">
        <ele>2752.8725586</ele>
        <time>2010-05-22T07:27:52Z</time>
      </trkpt>
      <trkpt lat="45.16556" lon="6.16127">
        <ele>2754.3144531</ele>
        <time>2010-05-22T07:28:05Z</time>
      </trkpt>
      <trkpt lat="45.16541" lon="6.16117">
        <ele>2756.7177734</ele>
        <time>2010-05-22T07:28:39Z</time>
      </trkpt>
      <trkpt lat="45.165" lon="6.16087">
        <ele>2766.3305664</ele>
        <time>2010-05-22T07:29:49Z</time>
      </trkpt>
      <trkpt lat="45.16484" lon="6.16076">
        <ele>2771.137207</ele>
        <time>2010-05-22T07:30:15Z</time>
      </trkpt>
      <trkpt lat="45.16476" lon="6.16071">
        <ele>2770.6567383</ele>
        <time>2010-05-22T07:30:27Z</time>
      </trkpt>
      <trkpt lat="45.1646" lon="6.16059">
        <ele>2770.6567383</ele>
        <time>2010-05-22T07:30:51Z</time>
      </trkpt>
      <trkpt lat="45.16452" lon="6.16053">
        <ele>2774.5024414</ele>
        <time>2010-05-22T07:31:03Z</time>
      </trkpt>
      <trkpt lat="45.16435" lon="6.16041">
        <ele>2776.9057617</ele>
        <time>2010-05-22T07:31:27Z</time>
      </trkpt>
      <trkpt lat="45.16404" lon="6.16016">
        <ele>2783.6347656</ele>
        <time>2010-05-22T07:32:15Z</time>
      </trkpt>
      <trkpt lat="45.1639" lon="6.16002">
        <ele>2787.9604492</ele>
        <time>2010-05-22T07:32:40Z</time>
      </trkpt>
      <trkpt lat="45.16359" lon="6.15976">
        <ele>2797.0927734</ele>
        <time>2010-05-22T07:33:37Z</time>
      </trkpt>
      <trkpt lat="45.16343" lon="6.15962">
        <ele>2802.8608398</ele>
        <time>2010-05-22T07:34:04Z</time>
      </trkpt>
      <trkpt lat="45.16335" lon="6.15955">
        <ele>2803.8222656</ele>
        <time>2010-05-22T07:34:52Z</time>
      </trkpt>
      <trkpt lat="45.16319" lon="6.15939">
        <ele>2807.6679688</ele>
        <time>2010-05-22T07:35:18Z</time>
      </trkpt>
      <trkpt lat="45.16312" lon="6.15931">
        <ele>2810.0712891</ele>
        <time>2010-05-22T07:35:31Z</time>
      </trkpt>
      <trkpt lat="45.16298" lon="6.15904">
        <ele>2816.800293</ele>
        <time>2010-05-22T07:39:17Z</time>
      </trkpt>
      <trkpt lat="45.16282" lon="6.15885">
        <ele>2820.1645508</ele>
        <time>2010-05-22T07:39:44Z</time>
      </trkpt>
      <trkpt lat="45.16274" lon="6.15873">
        <ele>2823.0488281</ele>
        <time>2010-05-22T07:40:00Z</time>
      </trkpt>
      <trkpt lat="45.16261" lon="6.15856">
        <ele>2828.3359375</ele>
        <time>2010-05-22T07:40:32Z</time>
      </trkpt>
      <trkpt lat="45.16254" lon="6.15847">
        <ele>2831.7006836</ele>
        <time>2010-05-22T07:40:49Z</time>
      </trkpt>
      <trkpt lat="45.16231" lon="6.15823">
        <ele>2840.8334961</ele>
        <time>2010-05-22T07:42:11Z</time>
      </trkpt>
      <trkpt lat="45.16223" lon="6.15816">
        <ele>2843.7172852</ele>
        <time>2010-05-22T07:42:27Z</time>
      </trkpt>
      <trkpt lat="45.16215" lon="6.1581">
        <ele>2847.5625</ele>
        <time>2010-05-22T07:42:43Z</time>
      </trkpt>
      <trkpt lat="45.16209" lon="6.15804">
        <ele>2851.8881836</ele>
        <time>2010-05-22T07:42:59Z</time>
      </trkpt>
      <trkpt lat="45.16201" lon="6.15798">
        <ele>2852.8496094</ele>
        <time>2010-05-22T07:43:14Z</time>
      </trkpt>
      <trkpt lat="45.16193" lon="6.1579">
        <ele>2856.2143555</ele>
        <time>2010-05-22T07:43:30Z</time>
      </trkpt>
      <trkpt lat="45.16183" lon="6.1578">
        <ele>2859.5786133</ele>
        <time>2010-05-22T07:43:49Z</time>
      </trkpt>
      <trkpt lat="45.16175" lon="6.15773">
        <ele>2861.5014648</ele>
        <time>2010-05-22T07:44:04Z</time>
      </trkpt>
      <trkpt lat="45.16158" lon="6.15756">
        <ele>2864.3852539</ele>
        <time>2010-05-22T07:44:34Z</time>
      </trkpt>
      <trkpt lat="45.16152" lon="6.1575">
        <ele>2866.3076172</ele>
        <time>2010-05-22T07:44:50Z</time>
      </trkpt>
      <trkpt lat="45.16114" lon="6.1571">
        <ele>2879.2861328</ele>
        <time>2010-05-22T07:46:04Z</time>
      </trkpt>
      <trkpt lat="45.16106" lon="6.15702">
        <ele>2882.6503906</ele>
        <time>2010-05-22T07:46:19Z</time>
      </trkpt>
      <trkpt lat="45.16099" lon="6.15696">
        <ele>2885.0537109</ele>
        <time>2010-05-22T07:46:34Z</time>
      </trkpt>
      <trkpt lat="45.16085" lon="6.15684">
        <ele>2887.4570313</ele>
        <time>2010-05-22T07:47:25Z</time>
      </trkpt>
      <trkpt lat="45.16078" lon="6.15677">
        <ele>2889.8603516</ele>
        <time>2010-05-22T07:47:40Z</time>
      </trkpt>
      <trkpt lat="45.16055" lon="6.15655">
        <ele>2901.3964844</ele>
        <time>2010-05-22T07:48:56Z</time>
      </trkpt>
      <trkpt lat="45.16046" lon="6.15651">
        <ele>2902.3579102</ele>
        <time>2010-05-22T07:49:13Z</time>
      </trkpt>
      <trkpt lat="45.1604" lon="6.15636">
        <ele>2907.1640625</ele>
        <time>2010-05-22T07:49:56Z</time>
      </trkpt>
      <trkpt lat="45.16038" lon="6.15622">
        <ele>2908.6064453</ele>
        <time>2010-05-22T07:50:10Z</time>
      </trkpt>
      <trkpt lat="45.16038" lon="6.15608">
        <ele>2911.4902344</ele>
        <time>2010-05-22T07:50:24Z</time>
      </trkpt>
      <trkpt lat="45.1603" lon="6.15591">
        <ele>2916.296875</ele>
        <time>2010-05-22T07:50:56Z</time>
      </trkpt>
      <trkpt lat="45.16018" lon="6.15591">
        <ele>2921.5839844</ele>
        <time>2010-05-22T07:51:14Z</time>
      </trkpt>
      <trkpt lat="45.16009" lon="6.15593">
        <ele>2922.5449219</ele>
        <time>2010-05-22T07:51:30Z</time>
      </trkpt>
      <trkpt lat="45.15998" lon="6.15595">
        <ele>2927.3515625</ele>
        <time>2010-05-22T07:51:51Z</time>
      </trkpt>
      <trkpt lat="45.15997" lon="6.15585">
        <ele>2928.793457</ele>
        <time>2010-05-22T07:52:50Z</time>
      </trkpt>
      <trkpt lat="45.15999" lon="6.15572">
        <ele>2932.6391602</ele>
        <time>2010-05-22T07:53:04Z</time>
      </trkpt>
      <trkpt lat="45.16002" lon="6.15559">
        <ele>2934.5620117</ele>
        <time>2010-05-22T07:53:19Z</time>
      </trkpt>
      <trkpt lat="45.16004" lon="6.15545">
        <ele>2940.3295898</ele>
        <time>2010-05-22T07:53:35Z</time>
      </trkpt>
      <trkpt lat="45.16008" lon="6.15531">
        <ele>2941.2910156</ele>
        <time>2010-05-22T07:53:51Z</time>
      </trkpt>
      <trkpt lat="45.16008" lon="6.1552">
        <ele>2944.1748047</ele>
        <time>2010-05-22T07:54:12Z</time>
      </trkpt>
      <trkpt lat="45.15994" lon="6.15519">
        <ele>2946.578125</ele>
        <time>2010-05-22T07:54:32Z</time>
      </trkpt>
      <trkpt lat="45.15984" lon="6.15522">
        <ele>2950.9038086</ele>
        <time>2010-05-22T07:54:49Z</time>
      </trkpt>
      <trkpt lat="45.15974" lon="6.15523">
        <ele>2951.8652344</ele>
        <time>2010-05-22T07:55:07Z</time>
      </trkpt>
      <trkpt lat="45.15964" lon="6.15527">
        <ele>2955.2299805</ele>
        <time>2010-05-22T07:55:26Z</time>
      </trkpt>
      <trkpt lat="45.1596" lon="6.15523">
        <ele>2958.1137695</ele>
        <time>2010-05-22T07:55:49Z</time>
      </trkpt>
      <trkpt lat="45.15964" lon="6.15512">
        <ele>2960.0366211</ele>
        <time>2010-05-22T07:56:07Z</time>
      </trkpt>
      <trkpt lat="45.15969" lon="6.15497">
        <ele>2962.9204102</ele>
        <time>2010-05-22T07:56:27Z</time>
      </trkpt>
      <trkpt lat="45.15972" lon="6.15481">
        <ele>2966.2851563</ele>
        <time>2010-05-22T07:56:58Z</time>
      </trkpt>
      <trkpt lat="45.15973" lon="6.15471">
        <ele>2969.1694336</ele>
        <time>2010-05-22T07:57:15Z</time>
      </trkpt>
      <trkpt lat="45.15957" lon="6.15468">
        <ele>2970.6113281</ele>
        <time>2010-05-22T07:58:13Z</time>
      </trkpt>
      <trkpt lat="45.15948" lon="6.15473">
        <ele>2973.4951172</ele>
        <time>2010-05-22T07:58:32Z</time>
      </trkpt>
      <trkpt lat="45.15938" lon="6.15477">
        <ele>2977.340332</ele>
        <time>2010-05-22T07:58:49Z</time>
      </trkpt>
      <trkpt lat="45.15942" lon="6.15467">
        <ele>2980.7050781</ele>
        <time>2010-05-22T07:59:16Z</time>
      </trkpt>
      <trkpt lat="45.15948" lon="6.15453">
        <ele>2982.1469727</ele>
        <time>2010-05-22T07:59:34Z</time>
      </trkpt>
      <trkpt lat="45.15953" lon="6.15441">
        <ele>2987.434082</ele>
        <time>2010-05-22T08:00:11Z</time>
      </trkpt>
      <trkpt lat="45.15958" lon="6.15429">
        <ele>2990.3178711</ele>
        <time>2010-05-22T08:00:28Z</time>
      </trkpt>
      <trkpt lat="45.15963" lon="6.15415">
        <ele>2992.2407227</ele>
        <time>2010-05-22T08:00:45Z</time>
      </trkpt>
      <trkpt lat="45.15966" lon="6.15404">
        <ele>2995.1245117</ele>
        <time>2010-05-22T08:01:01Z</time>
      </trkpt>
      <trkpt lat="45.15971" lon="6.15391">
        <ele>2998.4897461</ele>
        <time>2010-05-22T08:01:21Z</time>
      </trkpt>
      <trkpt lat="45.15965" lon="6.15376">
        <ele>3001.8540039</ele>
        <time>2010-05-22T08:02:10Z</time>
      </trkpt>
      <trkpt lat="45.15958" lon="6.15382">
        <ele>3005.6992188</ele>
        <time>2010-05-22T08:02:29Z</time>
      </trkpt>
      <trkpt lat="45.15947" lon="6.1538">
        <ele>3009.5444336</ele>
        <time>2010-05-22T08:02:47Z</time>
      </trkpt>
      <trkpt lat="45.15936" lon="6.15381">
        <ele>3010.5058594</ele>
        <time>2010-05-22T08:03:03Z</time>
      </trkpt>
      <trkpt lat="45.15923" lon="6.15388">
        <ele>3013.8706055</ele>
        <time>2010-05-22T08:03:30Z</time>
      </trkpt>
      <trkpt lat="45.15949" lon="6.15391">
        <ele>3013.8706055</ele>
        <time>2010-05-22T08:07:33Z</time>
      </trkpt>
      <trkpt lat="45.1594" lon="6.15389">
        <ele>3014.831543</ele>
        <time>2010-05-22T08:07:57Z</time>
      </trkpt>
      <trkpt lat="45.15928" lon="6.15384">
        <ele>3016.2739258</ele>
        <time>2010-05-22T08:09:17Z</time>
      </trkpt>
      <trkpt lat="45.15927" lon="6.15373">
        <ele>3019.1577148</ele>
        <time>2010-05-22T08:09:28Z</time>
      </trkpt>
      <trkpt lat="45.15938" lon="6.15358">
        <ele>3024.4448242</ele>
        <time>2010-05-22T08:10:01Z</time>
      </trkpt>
      <trkpt lat="45.1594" lon="6.15347">
        <ele>3025.40625</ele>
        <time>2010-05-22T08:10:15Z</time>
      </trkpt>
      <trkpt lat="45.1594" lon="6.15334">
        <ele>3026.3671875</ele>
        <time>2010-05-22T08:10:30Z</time>
      </trkpt>
      <trkpt lat="45.15932" lon="6.15333">
        <ele>3028.2905273</ele>
        <time>2010-05-22T08:10:44Z</time>
      </trkpt>
      <trkpt lat="45.15926" lon="6.15334">
        <ele>3030.2128906</ele>
        <time>2010-05-22T08:10:53Z</time>
      </trkpt>
      <trkpt lat="45.15922" lon="6.15336">
        <ele>3031.6552734</ele>
        <time>2010-05-22T08:11:08Z</time>
      </trkpt>
      <trkpt lat="45.15911" lon="6.15339">
        <ele>3034.5390625</ele>
        <time>2010-05-22T08:11:27Z</time>
      </trkpt>
      <trkpt lat="45.159" lon="6.15341">
        <ele>3036.9423828</ele>
        <time>2010-05-22T08:11:46Z</time>
      </trkpt>
      <trkpt lat="45.15904" lon="6.15329">
        <ele>3037.9033203</ele>
        <time>2010-05-22T08:12:10Z</time>
      </trkpt>
      <trkpt lat="45.15907" lon="6.15317">
        <ele>3042.7099609</ele>
        <time>2010-05-22T08:12:28Z</time>
      </trkpt>
      <trkpt lat="45.1591" lon="6.15305">
        <ele>3046.5551758</ele>
        <time>2010-05-22T08:12:45Z</time>
      </trkpt>
      <trkpt lat="45.15903" lon="6.15302">
        <ele>3051.3618164</ele>
        <time>2010-05-22T08:13:14Z</time>
      </trkpt>
      <trkpt lat="45.15891" lon="6.15305">
        <ele>3052.8037109</ele>
        <time>2010-05-22T08:13:37Z</time>
      </trkpt>
      <trkpt lat="45.15882" lon="6.15306">
        <ele>3056.6489258</ele>
        <time>2010-05-22T08:13:55Z</time>
      </trkpt>
      <trkpt lat="45.15871" lon="6.15301">
        <ele>3059.0522461</ele>
        <time>2010-05-22T08:15:11Z</time>
      </trkpt>
      <trkpt lat="45.15877" lon="6.1529">
        <ele>3060.9750977</ele>
        <time>2010-05-22T08:15:26Z</time>
      </trkpt>
      <trkpt lat="45.15879" lon="6.15277">
        <ele>3064.3398438</ele>
        <time>2010-05-22T08:15:41Z</time>
      </trkpt>
      <trkpt lat="45.15874" lon="6.15272">
        <ele>3068.1850586</ele>
        <time>2010-05-22T08:16:02Z</time>
      </trkpt>
      <trkpt lat="45.15861" lon="6.15274">
        <ele>3072.0302734</ele>
        <time>2010-05-22T08:16:51Z</time>
      </trkpt>
      <trkpt lat="45.1585" lon="6.15276">
        <ele>3074.4335938</ele>
        <time>2010-05-22T08:17:08Z</time>
      </trkpt>
      <trkpt lat="45.15833" lon="6.15278">
        <ele>3079.2402344</ele>
        <time>2010-05-22T08:17:36Z</time>
      </trkpt>
      <trkpt lat="45.15821" lon="6.15267">
        <ele>3082.6044922</ele>
        <time>2010-05-22T08:18:29Z</time>
      </trkpt>
      <trkpt lat="45.15826" lon="6.1526">
        <ele>3084.0463867</ele>
        <time>2010-05-22T08:18:45Z</time>
      </trkpt>
      <trkpt lat="45.15828" lon="6.15247">
        <ele>3088.8530273</ele>
        <time>2010-05-22T08:19:01Z</time>
      </trkpt>
      <trkpt lat="45.15831" lon="6.15233">
        <ele>3089.8144531</ele>
        <time>2010-05-22T08:19:18Z</time>
      </trkpt>
      <trkpt lat="45.15835" lon="6.15223">
        <ele>3093.1796875</ele>
        <time>2010-05-22T08:20:23Z</time>
      </trkpt>
      <trkpt lat="45.15841" lon="6.15211">
        <ele>3095.1020508</ele>
        <time>2010-05-22T08:20:38Z</time>
      </trkpt>
      <trkpt lat="45.15845" lon="6.15187">
        <ele>3100.3891602</ele>
        <time>2010-05-22T08:22:25Z</time>
      </trkpt>
      <trkpt lat="45.15849" lon="6.15175">
        <ele>3104.7148438</ele>
        <time>2010-05-22T08:22:40Z</time>
      </trkpt>
      <trkpt lat="45.15852" lon="6.15164">
        <ele>3110.4829102</ele>
        <time>2010-05-22T08:22:55Z</time>
      </trkpt>
      <trkpt lat="45.15856" lon="6.15154">
        <ele>3111.9248047</ele>
        <time>2010-05-22T08:23:11Z</time>
      </trkpt>
      <trkpt lat="45.15861" lon="6.15145">
        <ele>3113.8476563</ele>
        <time>2010-05-22T08:23:44Z</time>
      </trkpt>
      <trkpt lat="45.15867" lon="6.15133">
        <ele>3114.328125</ele>
        <time>2010-05-22T08:24:17Z</time>
      </trkpt>
      <trkpt lat="45.15851" lon="6.15115">
        <ele>3121.5380859</ele>
        <time>2010-05-22T08:25:17Z</time>
      </trkpt>
      <trkpt lat="45.15826" lon="6.15106">
        <ele>3128.7480469</ele>
        <time>2010-05-22T08:26:32Z</time>
      </trkpt>
      <trkpt lat="45.15812" lon="6.15104">
        <ele>3132.5932617</ele>
        <time>2010-05-22T08:27:15Z</time>
      </trkpt>
      <trkpt lat="45.15797" lon="6.15104">
        <ele>3137.8803711</ele>
        <time>2010-05-22T08:27:40Z</time>
      </trkpt>
      <trkpt lat="45.15787" lon="6.15104">
        <ele>3140.2836914</ele>
        <time>2010-05-22T08:27:56Z</time>
      </trkpt>
      <trkpt lat="45.15784" lon="6.15097">
        <ele>3144.6098633</ele>
        <time>2010-05-22T08:29:30Z</time>
      </trkpt>
      <trkpt lat="45.15789" lon="6.15084">
        <ele>3146.0517578</ele>
        <time>2010-05-22T08:29:46Z</time>
      </trkpt>
      <trkpt lat="45.15796" lon="6.15073">
        <ele>3149.8969727</ele>
        <time>2010-05-22T08:30:00Z</time>
      </trkpt>
      <trkpt lat="45.15803" lon="6.15062">
        <ele>3150.8579102</ele>
        <time>2010-05-22T08:30:15Z</time>
      </trkpt>
      <trkpt lat="45.15807" lon="6.15051">
        <ele>3152.7807617</ele>
        <time>2010-05-22T08:30:30Z</time>
      </trkpt>
      <trkpt lat="45.15801" lon="6.15041">
        <ele>3158.5488281</ele>
        <time>2010-05-22T08:31:05Z</time>
      </trkpt>
      <trkpt lat="45.15791" lon="6.15038">
        <ele>3160.4716797</ele>
        <time>2010-05-22T08:31:22Z</time>
      </trkpt>
      <trkpt lat="45.15781" lon="6.15034">
        <ele>3160.4716797</ele>
        <time>2010-05-22T08:31:39Z</time>
      </trkpt>
      <trkpt lat="45.15772" lon="6.1503">
        <ele>3163.8364258</ele>
        <time>2010-05-22T08:31:57Z</time>
      </trkpt>
      <trkpt lat="45.15762" lon="6.15025">
        <ele>3168.1621094</ele>
        <time>2010-05-22T08:32:14Z</time>
      </trkpt>
      <trkpt lat="45.15751" lon="6.15021">
        <ele>3170.5654297</ele>
        <time>2010-05-22T08:32:33Z</time>
      </trkpt>
      <trkpt lat="45.15752" lon="6.15016">
        <ele>3174.4106445</ele>
        <time>2010-05-22T08:35:32Z</time>
      </trkpt>
      <trkpt lat="45.15758" lon="6.15005">
        <ele>3174.4106445</ele>
        <time>2010-05-22T08:35:45Z</time>
      </trkpt>
      <trkpt lat="45.15764" lon="6.14995">
        <ele>3179.6977539</ele>
        <time>2010-05-22T08:36:00Z</time>
      </trkpt>
      <trkpt lat="45.15768" lon="6.14983">
        <ele>3180.6591797</ele>
        <time>2010-05-22T08:36:15Z</time>
      </trkpt>
      <trkpt lat="45.15766" lon="6.14971">
        <ele>3184.0234375</ele>
        <time>2010-05-22T08:36:31Z</time>
      </trkpt>
      <trkpt lat="45.1576" lon="6.14965">
        <ele>3185.9462891</ele>
        <time>2010-05-22T08:37:16Z</time>
      </trkpt>
      <trkpt lat="45.1575" lon="6.14962">
        <ele>3188.3500977</ele>
        <time>2010-05-22T08:37:31Z</time>
      </trkpt>
      <trkpt lat="45.15741" lon="6.14959">
        <ele>3190.753418</ele>
        <time>2010-05-22T08:37:46Z</time>
      </trkpt>
      <trkpt lat="45.15732" lon="6.14957">
        <ele>3192.6757813</ele>
        <time>2010-05-22T08:38:01Z</time>
      </trkpt>
      <trkpt lat="45.15721" lon="6.14955">
        <ele>3194.5986328</ele>
        <time>2010-05-22T08:38:17Z</time>
      </trkpt>
      <trkpt lat="45.15712" lon="6.14954">
        <ele>3197.0014648</ele>
        <time>2010-05-22T08:38:32Z</time>
      </trkpt>
      <trkpt lat="45.15704" lon="6.14954">
        <ele>3199.4047852</ele>
        <time>2010-05-22T08:38:49Z</time>
      </trkpt>
      <trkpt lat="45.15706" lon="6.14945">
        <ele>3202.2890625</ele>
        <time>2010-05-22T08:39:42Z</time>
      </trkpt>
      <trkpt lat="45.15711" lon="6.14932">
        <ele>3204.6918945</ele>
        <time>2010-05-22T08:39:58Z</time>
      </trkpt>
      <trkpt lat="45.1571" lon="6.14918">
        <ele>3206.6147461</ele>
        <time>2010-05-22T08:40:13Z</time>
      </trkpt>
      <trkpt lat="45.15705" lon="6.14905">
        <ele>3210.4599609</ele>
        <time>2010-05-22T08:40:29Z</time>
      </trkpt>
      <trkpt lat="45.157" lon="6.14893">
        <ele>3213.824707</ele>
        <time>2010-05-22T08:40:48Z</time>
      </trkpt>
      <trkpt lat="45.15695" lon="6.14885">
        <ele>3214.7856445</ele>
        <time>2010-05-22T08:41:47Z</time>
      </trkpt>
      <trkpt lat="45.15692" lon="6.14875">
        <ele>3219.5922852</ele>
        <time>2010-05-22T08:42:05Z</time>
      </trkpt>
      <trkpt lat="45.15687" lon="6.14863">
        <ele>3223.4379883</ele>
        <time>2010-05-22T08:42:22Z</time>
      </trkpt>
      <trkpt lat="45.15675" lon="6.14846">
        <ele>3230.1669922</ele>
        <time>2010-05-22T08:44:53Z</time>
      </trkpt>
      <trkpt lat="45.1567" lon="6.14833">
        <ele>3233.0512695</ele>
        <time>2010-05-22T08:45:09Z</time>
      </trkpt>
      <trkpt lat="45.15666" lon="6.1482">
        <ele>3234.9736328</ele>
        <time>2010-05-22T08:45:34Z</time>
      </trkpt>
      <trkpt lat="45.15663" lon="6.14806">
        <ele>3239.2998047</ele>
        <time>2010-05-22T08:45:52Z</time>
      </trkpt>
      <trkpt lat="45.15661" lon="6.14792">
        <ele>3242.1835938</ele>
        <time>2010-05-22T08:46:28Z</time>
      </trkpt>
      <trkpt lat="45.15657" lon="6.14766">
        <ele>3247.4707031</ele>
        <time>2010-05-22T08:47:23Z</time>
      </trkpt>
      <trkpt lat="45.15655" lon="6.14752">
        <ele>3249.8740234</ele>
        <time>2010-05-22T08:47:40Z</time>
      </trkpt>
      <trkpt lat="45.15654" lon="6.14739">
        <ele>3252.7583008</ele>
        <time>2010-05-22T08:47:58Z</time>
      </trkpt>
      <trkpt lat="45.15654" lon="6.14727">
        <ele>3256.6035156</ele>
        <time>2010-05-22T08:48:41Z</time>
      </trkpt>
      <trkpt lat="45.15654" lon="6.14713">
        <ele>3261.4101563</ele>
        <time>2010-05-22T08:48:59Z</time>
      </trkpt>
      <trkpt lat="45.15653" lon="6.147">
        <ele>3265.7358398</ele>
        <time>2010-05-22T08:49:54Z</time>
      </trkpt>
      <trkpt lat="45.15653" lon="6.14673">
        <ele>3270.0620117</ele>
        <time>2010-05-22T08:50:27Z</time>
      </trkpt>
      <trkpt lat="45.15652" lon="6.14658">
        <ele>3272.4648438</ele>
        <time>2010-05-22T08:50:56Z</time>
      </trkpt>
      <trkpt lat="45.15656" lon="6.14646">
        <ele>3276.3100586</ele>
        <time>2010-05-22T08:51:13Z</time>
      </trkpt>
      <trkpt lat="45.15657" lon="6.14638">
        <ele>3278.7133789</ele>
        <time>2010-05-22T08:52:19Z</time>
      </trkpt>
      <trkpt lat="45.15657" lon="6.14632">
        <ele>3280.6362305</ele>
        <time>2010-05-22T08:53:30Z</time>
      </trkpt>
      <trkpt lat="45.1565" lon="6.14626">
        <ele>3284.0009766</ele>
        <time>2010-05-22T08:53:46Z</time>
      </trkpt>
      <trkpt lat="45.15638" lon="6.14628">
        <ele>3284.9624023</ele>
        <time>2010-05-22T08:54:01Z</time>
      </trkpt>
      <trkpt lat="45.15629" lon="6.14633">
        <ele>3287.3657227</ele>
        <time>2010-05-22T08:54:17Z</time>
      </trkpt>
      <trkpt lat="45.1562" lon="6.14639">
        <ele>3288.8076172</ele>
        <time>2010-05-22T08:54:32Z</time>
      </trkpt>
      <trkpt lat="45.15612" lon="6.14638">
        <ele>3291.6914063</ele>
        <time>2010-05-22T08:55:14Z</time>
      </trkpt>
      <trkpt lat="45.15602" lon="6.14641">
        <ele>3294.5756836</ele>
        <time>2010-05-22T08:55:31Z</time>
      </trkpt>
      <trkpt lat="45.15594" lon="6.14642">
        <ele>3296.9785156</ele>
        <time>2010-05-22T08:55:46Z</time>
      </trkpt>
      <trkpt lat="45.15591" lon="6.14638">
        <ele>3299.3818359</ele>
        <time>2010-05-22T08:56:03Z</time>
      </trkpt>
      <trkpt lat="45.15594" lon="6.14628">
        <ele>3302.746582</ele>
        <time>2010-05-22T08:56:40Z</time>
      </trkpt>
      <trkpt lat="45.15599" lon="6.14617">
        <ele>3305.6303711</ele>
        <time>2010-05-22T08:56:55Z</time>
      </trkpt>
      <trkpt lat="45.15588" lon="6.14615">
        <ele>3307.5532227</ele>
        <time>2010-05-22T08:57:13Z</time>
      </trkpt>
      <trkpt lat="45.1558" lon="6.14616">
        <ele>3311.8789063</ele>
        <time>2010-05-22T08:57:28Z</time>
      </trkpt>
      <trkpt lat="45.1557" lon="6.14617">
        <ele>3312.359375</ele>
        <time>2010-05-22T08:57:43Z</time>
      </trkpt>
      <trkpt lat="45.1556" lon="6.14619">
        <ele>3316.2055664</ele>
        <time>2010-05-22T08:57:58Z</time>
      </trkpt>
      <trkpt lat="45.15551" lon="6.14621">
        <ele>3319.0893555</ele>
        <time>2010-05-22T08:58:16Z</time>
      </trkpt>
      <trkpt lat="45.15542" lon="6.14625">
        <ele>3321.0117188</ele>
        <time>2010-05-22T08:59:09Z</time>
      </trkpt>
      <trkpt lat="45.15548" lon="6.14615">
        <ele>3323.4150391</ele>
        <time>2010-05-22T08:59:27Z</time>
      </trkpt>
      <trkpt lat="45.15554" lon="6.14604">
        <ele>3327.2602539</ele>
        <time>2010-05-22T09:00:42Z</time>
      </trkpt>
      <trkpt lat="45.15554" lon="6.14594">
        <ele>3329.1831055</ele>
        <time>2010-05-22T09:01:06Z</time>
      </trkpt>
      <trkpt lat="45.15544" lon="6.14596">
        <ele>3331.5864258</ele>
        <time>2010-05-22T09:01:21Z</time>
      </trkpt>
      <trkpt lat="45.15535" lon="6.14597">
        <ele>3333.0283203</ele>
        <time>2010-05-22T09:01:50Z</time>
      </trkpt>
      <trkpt lat="45.15528" lon="6.14606">
        <ele>3336.3925781</ele>
        <time>2010-05-22T09:02:18Z</time>
      </trkpt>
      <trkpt lat="45.15532" lon="6.14593">
        <ele>3340.237793</ele>
        <time>2010-05-22T09:02:34Z</time>
      </trkpt>
      <trkpt lat="45.15537" lon="6.14581">
        <ele>3343.6025391</ele>
        <time>2010-05-22T09:02:50Z</time>
      </trkpt>
      <trkpt lat="45.15541" lon="6.14569">
        <ele>3345.0444336</ele>
        <time>2010-05-22T09:03:06Z</time>
      </trkpt>
      <trkpt lat="45.15546" lon="6.14557">
        <ele>3346.9672852</ele>
        <time>2010-05-22T09:03:42Z</time>
      </trkpt>
      <trkpt lat="45.15549" lon="6.14545">
        <ele>3347.9282227</ele>
        <time>2010-05-22T09:03:59Z</time>
      </trkpt>
      <trkpt lat="45.15549" lon="6.14529">
        <ele>3351.293457</ele>
        <time>2010-05-22T09:04:40Z</time>
      </trkpt>
      <trkpt lat="45.15547" lon="6.1452">
        <ele>3355.1386719</ele>
        <time>2010-05-22T09:05:03Z</time>
      </trkpt>
      <trkpt lat="45.15537" lon="6.14523">
        <ele>3359.4643555</ele>
        <time>2010-05-22T09:05:21Z</time>
      </trkpt>
      <trkpt lat="45.15527" lon="6.14523">
        <ele>3362.3486328</ele>
        <time>2010-05-22T09:05:38Z</time>
      </trkpt>
      <trkpt lat="45.15519" lon="6.14519">
        <ele>3362.8291016</ele>
        <time>2010-05-22T09:06:15Z</time>
      </trkpt>
      <trkpt lat="45.15525" lon="6.14513">
        <ele>3367.1547852</ele>
        <time>2010-05-22T09:06:34Z</time>
      </trkpt>
      <trkpt lat="45.1553" lon="6.14501">
        <ele>3367.6357422</ele>
        <time>2010-05-22T09:06:47Z</time>
      </trkpt>
      <trkpt lat="45.15535" lon="6.1449">
        <ele>3371</ele>
        <time>2010-05-22T09:07:02Z</time>
      </trkpt>
      <trkpt lat="45.15537" lon="6.14477">
        <ele>3373.8837891</ele>
        <time>2010-05-22T09:07:19Z</time>
      </trkpt>
      <trkpt lat="45.15532" lon="6.14472">
        <ele>3377.7294922</ele>
        <time>2010-05-22T09:08:08Z</time>
      </trkpt>
      <trkpt lat="45.15523" lon="6.14477">
        <ele>3380.6137695</ele>
        <time>2010-05-22T09:08:23Z</time>
      </trkpt>
      <trkpt lat="45.15513" lon="6.14482">
        <ele>3383.9780273</ele>
        <time>2010-05-22T09:08:38Z</time>
      </trkpt>
      <trkpt lat="45.15503" lon="6.14486">
        <ele>3386.3813477</ele>
        <time>2010-05-22T09:09:37Z</time>
      </trkpt>
      <trkpt lat="45.15495" lon="6.14493">
        <ele>3387.8232422</ele>
        <time>2010-05-22T09:09:52Z</time>
      </trkpt>
      <trkpt lat="45.15488" lon="6.14502">
        <ele>3389.7460938</ele>
        <time>2010-05-22T09:10:07Z</time>
      </trkpt>
      <trkpt lat="45.15479" lon="6.14509">
        <ele>3391.668457</ele>
        <time>2010-05-22T09:10:22Z</time>
      </trkpt>
      <trkpt lat="45.15475" lon="6.14507">
        <ele>3393.5913086</ele>
        <time>2010-05-22T09:11:11Z</time>
      </trkpt>
      <trkpt lat="45.15474" lon="6.14511">
        <ele>3397.4365234</ele>
        <time>2010-05-22T09:11:31Z</time>
      </trkpt>
      <trkpt lat="45.15465" lon="6.14516">
        <ele>3399.8398438</ele>
        <time>2010-05-22T09:11:45Z</time>
      </trkpt>
      <trkpt lat="45.15462" lon="6.14517">
        <ele>3402.2431641</ele>
        <time>2010-05-22T09:12:25Z</time>
      </trkpt>
      <trkpt lat="45.15467" lon="6.14505">
        <ele>3404.1655273</ele>
        <time>2010-05-22T09:12:41Z</time>
      </trkpt>
      <trkpt lat="45.1547" lon="6.14492">
        <ele>3405.1269531</ele>
        <time>2010-05-22T09:13:16Z</time>
      </trkpt>
      <trkpt lat="45.15473" lon="6.14477">
        <ele>3409.9335938</ele>
        <time>2010-05-22T09:13:37Z</time>
      </trkpt>
      <trkpt lat="45.15466" lon="6.14476">
        <ele>3411.855957</ele>
        <time>2010-05-22T09:14:07Z</time>
      </trkpt>
      <trkpt lat="45.15452" lon="6.14475">
        <ele>3413.7792969</ele>
        <time>2010-05-22T09:14:53Z</time>
      </trkpt>
      <trkpt lat="45.15455" lon="6.14465">
        <ele>3416.6630859</ele>
        <time>2010-05-22T09:15:19Z</time>
      </trkpt>
      <trkpt lat="45.15444" lon="6.14469">
        <ele>3418.5854492</ele>
        <time>2010-05-22T09:15:35Z</time>
      </trkpt>
      <trkpt lat="45.15436" lon="6.14476">
        <ele>3423.3920898</ele>
        <time>2010-05-22T09:15:52Z</time>
      </trkpt>
      <trkpt lat="45.1544" lon="6.14471">
        <ele>3423.8730469</ele>
        <time>2010-05-22T09:16:27Z</time>
      </trkpt>
      <trkpt lat="45.15444" lon="6.14459">
        <ele>3425.3149414</ele>
        <time>2010-05-22T09:16:51Z</time>
      </trkpt>
      <trkpt lat="45.1545" lon="6.14452">
        <ele>3429.1601563</ele>
        <time>2010-05-22T09:17:29Z</time>
      </trkpt>
      <trkpt lat="45.15442" lon="6.1446">
        <ele>3430.6020508</ele>
        <time>2010-05-22T09:17:47Z</time>
      </trkpt>
      <trkpt lat="45.15438" lon="6.14453">
        <ele>3437.3310547</ele>
        <time>2010-05-22T09:18:27Z</time>
      </trkpt>
      <trkpt lat="45.15443" lon="6.14439">
        <ele>3438.2924805</ele>
        <time>2010-05-22T09:19:16Z</time>
      </trkpt>
      <trkpt lat="45.15438" lon="6.14436">
        <ele>3442.1376953</ele>
        <time>2010-05-22T09:21:25Z</time>
      </trkpt>
      <trkpt lat="45.15432" lon="6.14439">
        <ele>3445.0219727</ele>
        <time>2010-05-22T09:22:48Z</time>
      </trkpt>
      <trkpt lat="45.15426" lon="6.14437">
        <ele>3451.2705078</ele>
        <time>2010-05-22T09:23:57Z</time>
      </trkpt>
      <trkpt lat="45.1543" lon="6.14425">
        <ele>3457.0380859</ele>
        <time>2010-05-22T09:24:33Z</time>
      </trkpt>
      <trkpt lat="45.15433" lon="6.14414">
        <ele>3461.3642578</ele>
        <time>2010-05-22T09:25:08Z</time>
      </trkpt>
      <trkpt lat="45.1544" lon="6.14407">
        <ele>3466.1704102</ele>
        <time>2010-05-22T09:25:44Z</time>
      </trkpt>
      <trkpt lat="45.15443" lon="6.14394">
        <ele>3471.9384766</ele>
        <time>2010-05-22T09:26:08Z</time>
      </trkpt>
    </trkseg>
  </trk>
</gpx>